U2511 / G-EZTK 7700 Squawk Report (21st of October, 2021)

Aircraft A320 Reg No. G-EZTK Age 12 years old
Model A320 Jet engines 2 First flight 17-07-09
Registered 24-07-09 Rollout 07-09 Delivered 24-07-09
Construction No. 3991 Line No. N/A Series 214
ADSHEX 406015 Airline name easyJet Owner N/A
Airfield based Luton~Beds~G First tracked N/A

Flight history for G-EZTK

Route Flight No Date Playback
Ljubljana (LJU) - Gatwick (LGW) U28422 2021-11-29 21:21:00
Gatwick (LGW) - Ljubljana (LJU) U28421 2021-11-29 17:43:00
Gibraltar (GIB) - Gatwick (LGW) U28902 2021-11-29 13:24:00
Gatwick (LGW) - Gibraltar (GIB) U28901 2021-11-29 10:42:00
Glasgow (GLA) - Gatwick (LGW) U2890 2021-11-28 21:46:00
Gatwick (LGW) - Glasgow (GLA) U2889 2021-11-28 20:41:00
Charles De Gaulle (CDG) - Gatwick (LGW) U28326 2021-11-28 18:45:00
Gatwick (LGW) - Charles De Gaulle (CDG) U28327 2021-11-28 16:00:00
Inverness (INV) - Gatwick (LGW) U2862 2021-11-28 08:36:00
Gatwick (LGW) - Inverness (INV) U2865 2021-11-28 07:26:00
Almeria (LEI) - Gatwick (LGW) U28164 2021-11-26 00:20:00
Gatwick (LGW) - Almeria (LEI) U28163 2021-11-25 20:41:00
Pafos Intl (PFO) - Gatwick (LGW) U28454 2021-11-24 19:17:00
Gatwick (LGW) - Pafos Intl (PFO) U28453 2021-11-24 11:17:00
Glasgow (GLA) - Gatwick (LGW) U2882 2021-11-23 15:42:00
Gran Canaria (LPA) - Glasgow (GLA) U26806 2021-11-23 07:00:00
Glasgow (GLA) - Gran Canaria (LPA) U26805 2021-11-22 17:11:00
Stansted (STN) - Glasgow (GLA) U2213 2021-11-22 10:22:00
Glasgow (GLA) - Stansted (STN) U2212 2021-11-22 09:17:00
Tenerife Sur (TFS) - Glasgow (GLA) U26894 2021-11-20 23:01:00
Time Lat Lon Altitude Heading Speed Vertical Rate
2021-10-21 10:37:24 GMT 52.442585 -1.735526 525 327 118 -576
2021-10-21 10:37:19 GMT 52.440445 -1.733093 575 326 119 -704
2021-10-21 10:37:09 GMT 52.435837 -1.727992 700 326 122 -640
2021-10-21 10:37:00 GMT 52.431198 -1.722870 800 326 124 -768
2021-10-21 10:36:52 GMT 52.427582 -1.718826 900 326 122 -640
2021-10-21 10:36:49 GMT 52.426346 -1.717453 925 326 121 -576
2021-10-21 10:36:44 GMT 52.423874 -1.714630 1,000 326 120 -704
2021-10-21 10:36:41 GMT 52.421265 -1.711748 1,025 326 120 -768
2021-10-21 10:36:38 GMT 52.421265 -1.711748 1,025 326 120 -768
2021-10-21 10:36:31 GMT 52.417694 -1.707840 1,125 326 120 -768
2021-10-21 10:36:27 GMT 52.416229 -1.706238 1,150 326 123 -704
2021-10-21 10:36:21 GMT 52.413300 -1.702957 1,225 326 122 -704
2021-10-21 10:36:18 GMT 52.412201 -1.701736 1,425 326 123 -704
2021-10-21 10:36:12 GMT 52.408649 -1.697780 1,350 327 121 -512
2021-10-21 10:36:09 GMT 52.407673 -1.696681 1,425 326 123 -704
2021-10-21 10:36:04 GMT 52.404922 -1.693573 1,450 326 123 -704
2021-10-21 10:36:01 GMT 52.404228 -1.692836 1,450 326 123 -512
2021-10-21 10:35:57 GMT 52.402039 -1.690404 1,500 326 122 -640
2021-10-21 10:35:54 GMT 52.401012 -1.689226 1,550 326 123 -576
2021-10-21 10:35:51 GMT 52.399384 -1.687469 1,575 326 124 -576
2021-10-21 10:35:48 GMT 52.397964 -1.685867 1,575 327 125 -512
2021-10-21 10:35:43 GMT 52.395287 -1.682949 1,650 326 127 -704
2021-10-21 10:35:39 GMT 52.393707 -1.681144 1,725 326 131 -960
2021-10-21 10:35:34 GMT 52.390778 -1.677933 1,775 326 133 -960
2021-10-21 10:35:31 GMT 52.389587 -1.676559 1,800 326 135 -832
2021-10-21 10:35:27 GMT 52.387253 -1.673965 1,875 327 148 -640
2021-10-21 10:35:24 GMT 52.385883 -1.672433 1,900 326 142 -704
2021-10-21 10:35:21 GMT 52.384022 -1.670393 1,950 327 148 -640
2021-10-21 10:35:17 GMT 52.382217 -1.668396 2,125 326 153 -832
2021-10-21 10:35:14 GMT 52.380066 -1.666077 2,125 326 166 -1024
2021-10-21 10:35:11 GMT 52.378250 -1.664036 2,400 326 168 -1024
2021-10-21 10:35:08 GMT 52.375923 -1.661447 2,125 327 162 -832
2021-10-21 10:35:04 GMT 52.374023 -1.659393 2,150 326 164 -768
2021-10-21 10:35:00 GMT 52.371780 -1.656895 2,200 326 167 -1024
2021-10-21 10:34:56 GMT 52.369267 -1.654149 2,250 327 168 -1024
2021-10-21 10:34:52 GMT 52.365772 -1.650225 2,500 327 170 -1088
2021-10-21 10:34:49 GMT 52.363815 -1.648026 2,450 327 170 -1024
2021-10-21 10:34:46 GMT 52.362717 -1.646881 2,450 327 168 -832
2021-10-21 10:34:44 GMT 52.361164 -1.645203 2,475 326 168 -1024
2021-10-21 10:34:41 GMT 52.359116 -1.642927 2,525 326 168 -960
2021-10-21 10:34:38 GMT 52.357224 -1.640778 2,575 326 167 -960
2021-10-21 10:34:35 GMT 52.355675 -1.639003 2,600 326 167 -896
2021-10-21 10:34:33 GMT 52.354137 -1.637355 2,650 327 167 -896
2021-10-21 10:34:30 GMT 52.352413 -1.635393 2,750 327 167 -896
2021-10-21 10:34:27 GMT 52.350178 -1.632961 2,775 327 167 -896
2021-10-21 10:34:23 GMT 52.348038 -1.630607 2,775 327 167 -896
2021-10-21 10:34:20 GMT 52.345459 -1.627808 2,875 327 168 -896
2021-10-21 10:34:17 GMT 52.343765 -1.625977 2,950 327 168 -896
2021-10-21 10:34:14 GMT 52.341568 -1.623535 2,925 327 168 -896
2021-10-21 10:34:11 GMT 52.339828 -1.621628 2,975 326 167 -960
2021-10-21 10:34:08 GMT 52.338169 -1.619856 3,025 326 168 -896
2021-10-21 10:34:05 GMT 52.336494 -1.617972 3,050 326 167 -960
2021-10-21 10:34:03 GMT 52.334911 -1.616246 3,125 326 167 -1088
2021-10-21 10:34:00 GMT 52.332550 -1.613617 3,975 332 165 -896
2021-10-21 10:33:57 GMT 52.330536 -1.611459 3,200 327 167 -896
2021-10-21 10:33:51 GMT 52.327469 -1.608047 3,300 327 167 -1024
2021-10-21 10:33:49 GMT 52.325832 -1.606280 3,350 327 166 -1024
2021-10-21 10:33:46 GMT 52.323715 -1.603928 3,375 327 166 -960
2021-10-21 10:33:43 GMT 52.322159 -1.602249 3,425 327 166 -1024
2021-10-21 10:33:40 GMT 52.320480 -1.600551 3,575 328 168 -1024
2021-10-21 10:33:37 GMT 52.317902 -1.597824 3,575 328 168 -1024
2021-10-21 10:33:34 GMT 52.316299 -1.596146 3,575 328 168 -1024
2021-10-21 10:33:31 GMT 52.314377 -1.594162 3,650 328 167 -960
2021-10-21 10:33:29 GMT 52.310760 -1.590424 3,700 328 166 -960
2021-10-21 10:33:26 GMT 52.310760 -1.590424 3,725 329 166 -960
2021-10-21 10:33:23 GMT 52.308792 -1.588466 3,775 329 167 -960
2021-10-21 10:33:20 GMT 52.306824 -1.586456 3,825 329 166 -960
2021-10-21 10:33:17 GMT 52.303253 -1.582947 3,875 330 166 -896
2021-10-21 10:33:14 GMT 52.303253 -1.582947 3,925 330 165 -896
2021-10-21 10:33:11 GMT 52.300598 -1.580429 3,950 331 165 -832
2021-10-21 10:33:08 GMT 52.299225 -1.579132 4,075 337 164 -832
2021-10-21 10:33:05 GMT 52.297119 -1.577301 4,075 335 165 -768
2021-10-21 10:33:02 GMT 52.295334 -1.575928 4,075 341 164 -768
2021-10-21 10:32:59 GMT 52.292953 -1.574249 4,175 341 164 -768
2021-10-21 10:32:57 GMT 52.291534 -1.573334 4,175 347 163 -704
2021-10-21 10:32:53 GMT 52.288219 -1.571830 4,225 353 163 -640
2021-10-21 10:32:49 GMT 52.285706 -1.571045 4,275 359 163 -576
2021-10-21 10:32:47 GMT 52.283890 -1.570810 4,250 357 163 -576
2021-10-21 10:32:44 GMT 52.281235 -1.570663 4,300 359 163 -640
2021-10-21 10:32:40 GMT 52.278908 -1.570574 4,325 0 163 -576
2021-10-21 10:32:38 GMT 52.277279 -1.570574 4,325 0 163 -576
2021-10-21 10:32:35 GMT 52.275055 -1.570511 4,375 0 162 -512
2021-10-21 10:32:31 GMT 52.272354 -1.570587 4,400 2 164 -576
2021-10-21 10:32:28 GMT 52.269459 -1.570731 4,425 6 165 -640
2021-10-21 10:32:25 GMT 52.267593 -1.570969 4,450 7 167 -640
2021-10-21 10:32:22 GMT 52.265121 -1.571579 4,500 14 170 -896
2021-10-21 10:32:18 GMT 52.262146 -1.573257 4,600 26 173 -1280
2021-10-21 10:32:16 GMT 52.261173 -1.574027 4,600 29 175 -1216
2021-10-21 10:32:13 GMT 52.258804 -1.576462 4,750 45 181 -1344
2021-10-21 10:32:09 GMT 52.256287 -1.580200 4,750 47 182 -1344
2021-10-21 10:32:05 GMT 52.254097 -1.585092 4,850 60 187 -1280
2021-10-21 10:32:03 GMT 52.253445 -1.586897 4,875 64 190 -1280
2021-10-21 10:32:00 GMT 52.252258 -1.591339 4,950 70 192 -1344
2021-10-21 10:31:58 GMT 52.251675 -1.594116 5,025 74 195 -1280
2021-10-21 10:31:55 GMT 52.250931 -1.598434 5,125 75 195 -1216
2021-10-21 10:31:53 GMT 52.250603 -1.600630 5,125 76 196 -1216
2021-10-21 10:31:50 GMT 52.249767 -1.605966 5,175 76 197 -1152
2021-10-21 10:31:48 GMT 52.249374 -1.609039 5,225 77 197 -1088
2021-10-21 10:31:45 GMT 52.248791 -1.613656 5,275 80 199 -832
2021-10-21 10:31:42 GMT 52.248459 -1.617355 5,300 85 202 -640
2021-10-21 10:31:39 GMT 52.248230 -1.621504 5,350 91 205 -320
2021-10-21 10:31:37 GMT 52.248230 -1.624721 5,350 95 207 -128
2021-10-21 10:31:34 GMT 52.248463 -1.629429 5,350 99 209 0
2021-10-21 10:31:31 GMT 52.248917 -1.633224 5,325 117 222 -64
2021-10-21 10:31:28 GMT 52.249924 -1.638565 5,325 112 218 192
2021-10-21 10:31:25 GMT 52.250931 -1.642299 5,325 117 222 -64
2021-10-21 10:31:22 GMT 52.253082 -1.648254 5,350 129 232 -576
2021-10-21 10:31:19 GMT 52.254745 -1.651716 5,375 138 237 -640
2021-10-21 10:31:17 GMT 52.256561 -1.655012 5,400 137 236 -640
2021-10-21 10:31:14 GMT 52.258888 -1.658465 5,425 140 237 -704
2021-10-21 10:31:12 GMT 52.260315 -1.660385 5,475 145 241 -704
2021-10-21 10:31:09 GMT 52.262848 -1.663409 5,475 145 241 -704
2021-10-21 10:31:07 GMT 52.264618 -1.665421 5,500 145 242 -640
2021-10-21 10:31:04 GMT 52.267830 -1.668980 5,525 145 243 -512
2021-10-21 10:31:02 GMT 52.271275 -1.672904 5,600 145 245 -192
2021-10-21 10:30:59 GMT 52.273228 -1.675023 5,575 145 245 -192
2021-10-21 10:30:56 GMT 52.274963 -1.677017 5,600 145 245 -192
2021-10-21 10:30:53 GMT 52.277390 -1.679688 5,600 145 246 -256
2021-10-21 10:30:51 GMT 52.279747 -1.682399 5,650 145 247 -320
2021-10-21 10:30:48 GMT 52.282585 -1.685617 5,625 145 248 -320
2021-10-21 10:30:45 GMT 52.284988 -1.688309 5,650 145 272 -576
2021-10-21 10:30:42 GMT 52.287891 -1.691581 5,675 145 252 -384
2021-10-21 10:30:39 GMT 52.291534 -1.695557 5,675 145 256 -384
2021-10-21 10:30:35 GMT 52.294968 -1.699428 5,700 145 256 -384
2021-10-21 10:30:32 GMT 52.297943 -1.702805 5,725 145 259 -512
2021-10-21 10:30:29 GMT 52.301376 -1.706619 5,750 145 260 -512
2021-10-21 10:30:26 GMT 52.303574 -1.709061 5,775 145 262 -512
2021-10-21 10:30:23 GMT 52.306606 -1.712455 5,800 145 264 -576
2021-10-21 10:30:21 GMT 52.309029 -1.715201 5,825 145 265 -576
2021-10-21 10:30:18 GMT 52.311077 -1.717399 5,825 145 266 -576
2021-10-21 10:30:16 GMT 52.314007 -1.720694 5,900 145 281 -320
2021-10-21 10:30:13 GMT 52.318432 -1.725638 5,925 145 271 -576
2021-10-21 10:30:08 GMT 52.322342 -1.730033 5,950 145 272 -640
2021-10-21 10:30:05 GMT 52.325367 -1.733407 5,975 145 274 -640
2021-10-21 10:30:02 GMT 52.328068 -1.736468 6,000 145 275 -640
2021-10-21 10:29:59 GMT 52.331818 -1.740646 6,050 145 277 -640
2021-10-21 10:29:57 GMT 52.337330 -1.746748 6,075 145 279 -448
2021-10-21 10:29:54 GMT 52.337330 -1.746748 6,100 145 281 -256
2021-10-21 10:29:51 GMT 52.340607 -1.750412 6,100 145 291 -128
2021-10-21 10:29:48 GMT 52.343857 -1.754074 6,100 145 289 -64
2021-10-21 10:29:45 GMT 52.346695 -1.757278 6,100 145 291 -128
2021-10-21 10:29:42 GMT 52.349579 -1.760483 6,100 145 294 -256
2021-10-21 10:29:40 GMT 52.352089 -1.763306 6,100 145 297 -512
2021-10-21 10:29:37 GMT 52.355579 -1.767229 6,175 144 301 -1536
2021-10-21 10:29:34 GMT 52.358322 -1.770325 6,325 144 300 -1408
2021-10-21 10:29:31 GMT 52.363174 -1.775894 6,175 144 299 -832
2021-10-21 10:29:28 GMT 52.366753 -1.780021 6,250 145 300 -1152
2021-10-21 10:29:25 GMT 52.368988 -1.782532 6,300 144 300 -1408
2021-10-21 10:29:22 GMT 52.372803 -1.786926 6,575 144 301 -1600
2021-10-21 10:29:20 GMT 52.374664 -1.789017 6,400 144 301 -1600
2021-10-21 10:29:17 GMT 52.381989 -1.797409 6,475 145 300 -1792
2021-10-21 10:29:14 GMT 52.381989 -1.797409 6,625 145 300 -1984
2021-10-21 10:29:11 GMT 52.384907 -1.800738 6,875 144 301 -2304
2021-10-21 10:29:08 GMT 52.389496 -1.805954 7,050 145 302 -2304
2021-10-21 10:29:05 GMT 52.391693 -1.808472 6,975 145 303 -2304
2021-10-21 10:29:01 GMT 52.396358 -1.813764 7,025 145 303 -2304
2021-10-21 10:28:58 GMT 52.400757 -1.818848 7,200 145 304 -2368
2021-10-21 10:28:55 GMT 52.403091 -1.821518 7,350 145 305 -2432
2021-10-21 10:28:52 GMT 52.407394 -1.826324 7,425 145 305 -2496
2021-10-21 10:28:50 GMT 52.409821 -1.829147 7,425 145 305 -2496
2021-10-21 10:28:47 GMT 52.413528 -1.833344 7,675 145 305 -2624
2021-10-21 10:28:44 GMT 52.417236 -1.837616 7,775 145 304 -2816
2021-10-21 10:28:41 GMT 52.420753 -1.841622 8,050 145 305 -2880
2021-10-21 10:28:37 GMT 52.424335 -1.845625 8,050 145 304 -2816
2021-10-21 10:28:34 GMT 52.427902 -1.849670 8,225 145 304 -2752
2021-10-21 10:28:31 GMT 52.431702 -1.853943 8,375 146 303 -2560
2021-10-21 10:28:28 GMT 52.434578 -1.857082 8,475 147 303 -2368
2021-10-21 10:28:26 GMT 52.437698 -1.860352 8,600 148 304 -2176
2021-10-21 10:28:23 GMT 52.443748 -1.866420 8,750 154 305 -1664
2021-10-21 10:28:20 GMT 52.443748 -1.866420 8,775 152 304 -1728
2021-10-21 10:28:18 GMT 52.446960 -1.869245 8,825 154 305 -1664
2021-10-21 10:28:16 GMT 52.450928 -1.872101 9,000 164 308 -704
2021-10-21 10:28:13 GMT 52.452969 -1.873404 8,975 161 307 -960
2021-10-21 10:28:10 GMT 52.456833 -1.875381 8,975 167 309 -512
2021-10-21 10:28:07 GMT 52.461685 -1.877289 9,000 172 309 0
2021-10-21 10:28:04 GMT 52.466080 -1.878510 9,000 172 309 0
2021-10-21 10:28:01 GMT 52.469604 -1.879349 9,000 172 309 0
2021-10-21 10:27:57 GMT 52.477036 -1.881016 9,000 172 309 0
2021-10-21 10:27:54 GMT 52.480957 -1.881943 9,000 172 309 0
2021-10-21 10:27:51 GMT 52.485764 -1.883011 9,000 172 309 0
2021-10-21 10:27:48 GMT 52.488392 -1.883606 9,000 172 310 0
2021-10-21 10:27:46 GMT 52.490536 -1.884077 9,000 172 310 0
2021-10-21 10:27:43 GMT 52.496773 -1.885489 9,000 172 310 0
2021-10-21 10:27:40 GMT 52.499542 -1.886139 9,000 172 311 0
2021-10-21 10:27:37 GMT 52.504120 -1.887207 9,000 172 311 0
2021-10-21 10:27:35 GMT 52.507759 -1.888000 9,000 172 312 0
2021-10-21 10:27:31 GMT 52.513138 -1.889191 9,000 172 313 0
2021-10-21 10:27:27 GMT 52.518372 -1.890355 9,000 172 313 0
2021-10-21 10:27:24 GMT 52.523540 -1.891532 9,000 172 314 0
2021-10-21 10:27:21 GMT 52.527592 -1.892395 9,000 172 314 0
2021-10-21 10:27:19 GMT 52.529591 -1.892866 9,000 172 314 0
2021-10-21 10:27:16 GMT 52.533875 -1.893845 9,000 172 313 0
2021-10-21 10:27:13 GMT 52.538727 -1.894913 9,000 172 313 0
2021-10-21 10:27:10 GMT 52.543278 -1.895926 9,000 172 312 0
2021-10-21 10:27:07 GMT 52.547421 -1.896868 9,000 172 312 64
2021-10-21 10:27:04 GMT 52.551704 -1.897810 9,000 172 312 64
2021-10-21 10:27:01 GMT 52.556126 -1.898830 9,000 172 312 0
2021-10-21 10:26:59 GMT 52.559784 -1.899719 9,000 172 312 0
2021-10-21 10:26:56 GMT 52.562531 -1.900330 9,000 172 312 0
2021-10-21 10:26:53 GMT 52.568184 -1.901576 9,000 172 312 0
2021-10-21 10:26:49 GMT 52.576721 -1.903534 9,000 171 313 0
2021-10-21 10:26:46 GMT 52.576721 -1.903534 9,000 171 313 64
2021-10-21 10:26:44 GMT 52.580429 -1.904449 9,000 171 313 0
2021-10-21 10:26:41 GMT 52.585083 -1.905579 9,000 171 313 64
2021-10-21 10:26:39 GMT 52.587547 -1.906206 9,000 170 313 64
2021-10-21 10:26:36 GMT 52.595581 -1.908569 9,000 169 314 64
2021-10-21 10:26:34 GMT 52.595581 -1.908569 9,000 168 313 0
2021-10-21 10:26:31 GMT 52.599289 -1.909866 9,000 166 313 0
2021-10-21 10:26:29 GMT 52.602127 -1.910934 9,000 164 313 0
2021-10-21 10:26:26 GMT 52.611603 -1.915283 9,000 163 313 -64
2021-10-21 10:26:22 GMT 52.611603 -1.915283 9,000 162 313 0
2021-10-21 10:26:19 GMT 52.615993 -1.917507 9,000 164 314 0
2021-10-21 10:26:16 GMT 52.620880 -1.919782 9,000 165 314 0
2021-10-21 10:26:13 GMT 52.625153 -1.921616 9,000 165 315 0
2021-10-21 10:26:10 GMT 52.631104 -1.924057 9,000 165 315 0
2021-10-21 10:26:08 GMT 52.631104 -1.924057 9,000 165 315 0
2021-10-21 10:26:05 GMT 52.635315 -1.925812 9,000 165 316 0
2021-10-21 10:26:02 GMT 52.640060 -1.927708 9,000 165 316 0
2021-10-21 10:25:59 GMT 52.642822 -1.928864 9,000 165 316 0
2021-10-21 10:25:57 GMT 52.647415 -1.930769 9,000 165 316 0
2021-10-21 10:25:55 GMT 52.649555 -1.931632 9,000 165 316 0
2021-10-21 10:25:52 GMT 52.657097 -1.934771 9,000 165 316 0
2021-10-21 10:25:49 GMT 52.657097 -1.934771 9,000 165 316 0
2021-10-21 10:25:47 GMT 52.659714 -1.935806 9,000 165 316 0
2021-10-21 10:25:45 GMT 52.664978 -1.938019 9,000 165 316 0
2021-10-21 10:25:41 GMT 52.669155 -1.939715 9,000 165 316 0
2021-10-21 10:25:38 GMT 52.673767 -1.941605 9,000 165 316 0
2021-10-21 10:25:35 GMT 52.677956 -1.943403 9,000 165 316 0
2021-10-21 10:25:32 GMT 52.682236 -1.945129 9,000 165 317 0
2021-10-21 10:25:29 GMT 52.685989 -1.946716 9,000 165 317 0
2021-10-21 10:25:27 GMT 52.688194 -1.947641 9,000 165 317 0
2021-10-21 10:25:25 GMT 52.691849 -1.949081 9,000 165 317 0
2021-10-21 10:25:22 GMT 52.697388 -1.951447 9,000 165 317 0
2021-10-21 10:25:19 GMT 52.701645 -1.953201 9,000 165 317 0
2021-10-21 10:25:16 GMT 52.705353 -1.954727 9,000 165 317 -64
2021-10-21 10:25:14 GMT 52.707642 -1.955719 9,000 165 317 -64
2021-10-21 10:25:11 GMT 52.712906 -1.957855 9,000 165 316 -128
2021-10-21 10:25:08 GMT 52.716221 -1.959255 9,025 165 315 -256
2021-10-21 10:25:05 GMT 52.719681 -1.960754 9,025 165 315 -256
2021-10-21 10:25:03 GMT 52.724876 -1.962864 9,050 165 315 -384
2021-10-21 10:25:00 GMT 52.727600 -1.964035 9,075 165 314 -640
2021-10-21 10:24:57 GMT 52.731720 -1.965714 9,075 165 314 -832
2021-10-21 10:24:54 GMT 52.736702 -1.967730 9,150 165 314 -1152
2021-10-21 10:24:51 GMT 52.741013 -1.969528 9,175 165 315 -1408
2021-10-21 10:24:48 GMT 52.749413 -1.973066 9,275 165 315 -1536
2021-10-21 10:24:45 GMT 52.749413 -1.973066 9,375 165 315 -1472
2021-10-21 10:24:42 GMT 52.752869 -1.974487 9,425 165 315 -1408
2021-10-21 10:24:39 GMT 52.757675 -1.976471 9,475 165 316 -1408
2021-10-21 10:24:37 GMT 52.760723 -1.977774 9,525 165 316 -1408
2021-10-21 10:24:34 GMT 52.764263 -1.979265 9,625 165 316 -1472
2021-10-21 10:24:31 GMT 52.768543 -1.980992 9,675 165 316 -1536
2021-10-21 10:24:28 GMT 52.772873 -1.982803 9,725 165 317 -1536
2021-10-21 10:24:25 GMT 52.777203 -1.984602 9,825 165 317 -1600
2021-10-21 10:24:23 GMT 52.779343 -1.985465 9,925 165 317 -1536
2021-10-21 10:24:20 GMT 52.785233 -1.987991 10,025 165 318 -1408
2021-10-21 10:24:17 GMT 52.788116 -1.989136 10,000 165 318 -1408
2021-10-21 10:24:15 GMT 52.791588 -1.990566 10,075 165 319 -1216
2021-10-21 10:24:13 GMT 52.794846 -1.991959 10,150 165 320 -1024
2021-10-21 10:24:10 GMT 52.798553 -1.993484 10,175 166 322 -896
2021-10-21 10:24:07 GMT 52.802387 -1.995039 10,225 165 324 -832
2021-10-21 10:24:05 GMT 52.806160 -1.996608 10,225 165 324 -768
2021-10-21 10:24:02 GMT 52.809650 -1.998099 10,275 165 328 -832
2021-10-21 10:23:59 GMT 52.815098 -2.000296 10,325 165 328 -832
2021-10-21 10:23:57 GMT 52.817368 -2.001266 10,350 166 330 -832
2021-10-21 10:23:55 GMT 52.820801 -2.002640 10,375 165 333 -832
2021-10-21 10:23:53 GMT 52.822998 -2.003555 10,400 165 333 -832
2021-10-21 10:23:50 GMT 52.827484 -2.005463 10,450 165 336 -896
2021-10-21 10:23:47 GMT 52.832230 -2.007359 10,450 165 337 -896
2021-10-21 10:23:44 GMT 52.836731 -2.009201 10,525 166 339 -1152
2021-10-21 10:23:41 GMT 52.841721 -2.011337 10,625 165 342 -1344
2021-10-21 10:23:38 GMT 52.850384 -2.014893 10,725 165 342 -1344
2021-10-21 10:23:36 GMT 52.854851 -2.016697 10,725 166 343 -1408
2021-10-21 10:23:33 GMT 52.854851 -2.016697 10,800 166 344 -1408
2021-10-21 10:23:30 GMT 52.859180 -2.018502 10,850 166 345 -1408
2021-10-21 10:23:27 GMT 52.862961 -2.020035 11,000 166 347 -1408
2021-10-21 10:23:24 GMT 52.868408 -2.022247 11,025 165 347 -1408
2021-10-21 10:23:21 GMT 52.873352 -2.024307 11,075 165 348 -1344
2021-10-21 10:23:18 GMT 52.876591 -2.025643 11,175 165 350 -1088
2021-10-21 10:23:16 GMT 52.881638 -2.027817 11,175 165 350 -1088
2021-10-21 10:23:13 GMT 52.885811 -2.029567 11,250 165 352 -1280
2021-10-21 10:23:10 GMT 52.889767 -2.031215 11,325 165 353 -1344
2021-10-21 10:23:07 GMT 52.895508 -2.033691 11,500 165 354 -1536
2021-10-21 10:23:03 GMT 52.901367 -2.036209 11,500 165 355 -1664
2021-10-21 10:23:00 GMT 52.911392 -2.040482 11,550 165 355 -1600
2021-10-21 10:22:57 GMT 52.914810 -2.041966 11,675 165 358 -1280
2021-10-21 10:22:54 GMT 52.914810 -2.041966 11,700 165 357 -1280
2021-10-21 10:22:51 GMT 52.920444 -2.044399 11,875 165 361 -1600
2021-10-21 10:22:48 GMT 52.925098 -2.046361 11,825 165 360 -1408
2021-10-21 10:22:45 GMT 52.929199 -2.048111 11,900 165 361 -1600
2021-10-21 10:22:42 GMT 52.939041 -2.052383 12,050 165 362 -1856
2021-10-21 10:22:40 GMT 52.939041 -2.052383 12,050 165 362 -1856
2021-10-21 10:22:37 GMT 52.946934 -2.055699 12,150 165 363 -2048
2021-10-21 10:22:34 GMT 52.946934 -2.055699 12,225 165 363 -2048
2021-10-21 10:22:31 GMT 52.954243 -2.058838 12,325 165 363 -2112
2021-10-21 10:22:28 GMT 52.958405 -2.060547 12,475 165 363 -2240
2021-10-21 10:22:25 GMT 52.961792 -2.061996 12,575 165 363 -2304
2021-10-21 10:22:22 GMT 52.966438 -2.063939 12,675 165 364 -2240
2021-10-21 10:22:20 GMT 52.974911 -2.067548 12,825 165 365 -2304
2021-10-21 10:22:17 GMT 52.974911 -2.067548 12,950 165 366 -2432
2021-10-21 10:22:14 GMT 52.979919 -2.069626 13,050 165 368 -2496
2021-10-21 10:22:12 GMT 52.983215 -2.070999 13,125 165 372 -2624
2021-10-21 10:22:10 GMT 52.987518 -2.072830 13,150 165 369 -2688
2021-10-21 10:22:07 GMT 52.992966 -2.075119 13,325 165 370 -2880
2021-10-21 10:22:04 GMT 52.996948 -2.076797 13,475 165 370 -2944
2021-10-21 10:22:01 GMT 53.001251 -2.078629 13,650 165 371 -2752
2021-10-21 10:21:58 GMT 53.006241 -2.080765 13,675 165 372 -2688
2021-10-21 10:21:56 GMT 53.010590 -2.082596 13,800 165 373 -2624
2021-10-21 10:21:53 GMT 53.015762 -2.084732 13,925 165 374 -2752
2021-10-21 10:21:50 GMT 53.020111 -2.086563 14,150 165 374 -3200
2021-10-21 10:21:47 GMT 53.025745 -2.088972 14,300 165 374 -3328
2021-10-21 10:21:44 GMT 53.035034 -2.092819 14,450 165 374 -3456
2021-10-21 10:21:41 GMT 53.035034 -2.092819 14,625 165 374 -3456
2021-10-21 10:21:38 GMT 53.040176 -2.095014 14,725 165 374 -3392
2021-10-21 10:21:36 GMT 53.044922 -2.097015 14,875 165 374 -3328
2021-10-21 10:21:33 GMT 53.047440 -2.098007 15,025 165 374 -3200
2021-10-21 10:21:31 GMT 53.052292 -2.100067 15,200 165 374 -3072
2021-10-21 10:21:28 GMT 53.056934 -2.101998 15,250 165 375 -2944
2021-10-21 10:21:26 GMT 53.060211 -2.103424 15,375 165 375 -2752
2021-10-21 10:21:23 GMT 53.068771 -2.107010 15,500 165 376 -2624
2021-10-21 10:21:21 GMT 53.071411 -2.108119 15,575 165 377 -2496
2021-10-21 10:21:19 GMT 53.071411 -2.108119 15,800 165 379 -2368
2021-10-21 10:21:16 GMT 53.077511 -2.110709 15,800 165 380 -2368
2021-10-21 10:21:13 GMT 53.085381 -2.114005 15,925 165 381 -2496
2021-10-21 10:21:11 GMT 53.085381 -2.114005 16,075 165 383 -2560
2021-10-21 10:21:09 GMT 53.089783 -2.115860 16,125 165 384 -2560
2021-10-21 10:21:06 GMT 53.093536 -2.117462 16,200 165 386 -2432
2021-10-21 10:21:03 GMT 53.098972 -2.119796 16,350 165 388 -2368
2021-10-21 10:21:01 GMT 53.103348 -2.121654 16,450 165 389 -2432
2021-10-21 10:20:59 GMT 53.107166 -2.123269 16,550 165 390 -2496
2021-10-21 10:20:56 GMT 53.110886 -2.124834 16,600 165 390 -2560
2021-10-21 10:20:53 GMT 53.120621 -2.129005 16,750 165 392 -2816
2021-10-21 10:20:51 GMT 53.120621 -2.129005 16,850 165 392 -2944
2021-10-21 10:20:49 GMT 53.123154 -2.130092 16,975 165 392 -2944
2021-10-21 10:20:46 GMT 53.130257 -2.133206 17,100 165 393 -2752
2021-10-21 10:20:43 GMT 53.134678 -2.135064 17,225 165 395 -2368
2021-10-21 10:20:40 GMT 53.139797 -2.137326 17,325 165 396 -1920
2021-10-21 10:20:37 GMT 53.144348 -2.139274 17,400 165 398 -1792
2021-10-21 10:20:35 GMT 53.147991 -2.140880 17,450 165 398 -1728
2021-10-21 10:20:32 GMT 53.155014 -2.143903 17,575 165 399 -1664
2021-10-21 10:20:29 GMT 53.158585 -2.145473 18,350 165 416 -1856
2021-10-21 10:20:26 GMT 53.164673 -2.148063 17,725 165 400 -1664
2021-10-21 10:20:23 GMT 53.169777 -2.150331 17,825 165 401 -1664
2021-10-21 10:20:21 GMT 53.173645 -2.151986 17,850 165 402 -1664
2021-10-21 10:20:19 GMT 53.176434 -2.153159 17,950 165 403 -1600
2021-10-21 10:20:16 GMT 53.183212 -2.156067 18,000 165 405 -1472
2021-10-21 10:20:13 GMT 53.188026 -2.158167 18,075 165 406 -1536
2021-10-21 10:20:11 GMT 53.191910 -2.159834 18,125 165 406 -1536
2021-10-21 10:20:07 GMT 53.199341 -2.162933 18,225 165 408 -1536
2021-10-21 10:20:05 GMT 53.202347 -2.164228 18,250 165 409 -1600
2021-10-21 10:20:02 GMT 53.207840 -2.166582 18,525 165 411 -1728
2021-10-21 10:19:59 GMT 53.213074 -2.168750 18,450 165 411 -1792
2021-10-21 10:19:56 GMT 53.219284 -2.171369 18,500 165 412 -1920
2021-10-21 10:19:53 GMT 53.225082 -2.173758 18,675 165 412 -2048
2021-10-21 10:19:50 GMT 53.233788 -2.177393 18,775 165 413 -2048
2021-10-21 10:19:48 GMT 53.233788 -2.177393 18,775 165 413 -1984
2021-10-21 10:19:45 GMT 53.240257 -2.180059 18,900 166 414 -1984
2021-10-21 10:19:42 GMT 53.244049 -2.181649 19,025 166 414 -1984
2021-10-21 10:19:40 GMT 53.248775 -2.183613 19,075 166 414 -2048
2021-10-21 10:19:38 GMT 53.258644 -2.187653 19,150 166 415 -1984
2021-10-21 10:19:35 GMT 53.258644 -2.187653 19,225 165 415 -1920
2021-10-21 10:19:32 GMT 53.268265 -2.191772 19,325 165 416 -1856
2021-10-21 10:19:30 GMT 53.268265 -2.191772 19,425 164 417 -1792
2021-10-21 10:19:27 GMT 53.272705 -2.193734 19,450 163 417 -1792
2021-10-21 10:19:25 GMT 53.278061 -2.196481 19,500 163 418 -1792
2021-10-21 10:19:22 GMT 53.281643 -2.198397 19,625 160 418 -1728
2021-10-21 10:19:20 GMT 53.285706 -2.200875 19,700 159 418 -1664
2021-10-21 10:19:17 GMT 53.291046 -2.204374 19,750 156 419 -1536
2021-10-21 10:19:15 GMT 53.295097 -2.207283 19,800 155 418 -1408
2021-10-21 10:19:12 GMT 53.299149 -2.210433 19,900 153 419 -1088
2021-10-21 10:19:10 GMT 53.303604 -2.213981 19,925 153 418 -960
2021-10-21 10:19:08 GMT 53.307106 -2.217057 19,975 151 419 -576
2021-10-21 10:19:05 GMT 53.312347 -2.221749 20,000 151 420 -256
2021-10-21 10:19:02 GMT 53.317677 -2.226670 20,000 151 419 -128
2021-10-21 10:18:59 GMT 53.323196 -2.231716 20,000 151 419 -128
2021-10-21 10:18:56 GMT 53.328568 -2.236606 20,000 151 419 -192
2021-10-21 10:18:53 GMT 53.333588 -2.241054 20,100 152 416 -448
2021-10-21 10:18:50 GMT 53.337341 -2.244428 20,050 152 416 -384
2021-10-21 10:18:48 GMT 53.341045 -2.247673 20,075 152 416 -384
2021-10-21 10:18:45 GMT 53.346222 -2.252197 20,100 152 415 -576
2021-10-21 10:18:42 GMT 53.353008 -2.257933 20,100 152 415 -768
2021-10-21 10:18:39 GMT 53.356220 -2.260760 20,150 152 414 -1152
2021-10-21 10:18:36 GMT 53.362225 -2.265849 20,200 152 414 -1152
2021-10-21 10:18:34 GMT 53.369862 -2.272474 20,325 152 414 -1344
2021-10-21 10:18:32 GMT 53.369862 -2.272474 20,300 152 414 -1536
2021-10-21 10:18:29 GMT 53.373444 -2.275543 20,350 152 414 -1728
2021-10-21 10:18:26 GMT 53.378517 -2.279905 20,425 152 414 -1984
2021-10-21 10:18:24 GMT 53.381836 -2.282802 20,575 152 415 -2112
2021-10-21 10:18:21 GMT 53.386276 -2.286569 20,575 152 414 -2112
2021-10-21 10:18:19 GMT 53.391037 -2.290728 20,700 152 415 -2112
2021-10-21 10:18:16 GMT 53.395370 -2.294446 20,975 152 415 -1984
2021-10-21 10:18:14 GMT 53.398682 -2.297320 20,850 152 415 -2048
2021-10-21 10:18:12 GMT 53.403122 -2.301165 20,950 152 415 -1984
2021-10-21 10:18:09 GMT 53.408386 -2.305716 20,975 152 415 -1920
2021-10-21 10:18:06 GMT 53.413292 -2.309875 21,150 152 415 -1920
2021-10-21 10:18:03 GMT 53.416260 -2.312465 21,175 152 416 -1920
2021-10-21 10:18:01 GMT 53.421387 -2.316860 21,750 152 417 -1920
2021-10-21 10:17:58 GMT 53.427383 -2.322039 21,375 152 417 -1920
2021-10-21 10:17:55 GMT 53.430817 -2.325021 21,425 152 417 -1920
2021-10-21 10:17:53 GMT 53.434433 -2.328081 21,525 152 418 -1920
2021-10-21 10:17:51 GMT 53.439316 -2.332333 21,600 152 418 -1920
2021-10-21 10:17:48 GMT 53.445053 -2.337263 21,700 152 418 -1920
2021-10-21 10:17:45 GMT 53.447880 -2.339765 21,750 152 419 -1920
2021-10-21 10:17:43 GMT 53.452209 -2.343400 21,850 152 419 -1920
2021-10-21 10:17:41 GMT 53.456589 -2.347229 21,925 152 419 -1920
2021-10-21 10:17:38 GMT 53.460823 -2.350913 22,075 152 419 -1984
2021-10-21 10:17:35 GMT 53.466431 -2.355704 22,425 152 420 -1920
2021-10-21 10:17:32 GMT 53.470833 -2.359556 22,225 152 420 -1984
2021-10-21 10:17:30 GMT 53.473846 -2.362139 22,250 152 420 -1984
2021-10-21 10:17:28 GMT 53.477394 -2.365211 22,350 152 420 -1920
2021-10-21 10:17:25 GMT 53.483322 -2.370379 22,500 152 420 -1920
2021-10-21 10:17:22 GMT 53.487991 -2.374381 22,525 152 421 -1920
2021-10-21 10:17:20 GMT 53.490601 -2.376578 22,550 152 420 -1920
2021-10-21 10:17:18 GMT 53.494583 -2.380031 22,675 152 421 -1920
2021-10-21 10:17:15 GMT 53.499756 -2.384583 22,725 152 421 -1920
2021-10-21 10:17:13 GMT 53.504105 -2.388271 22,825 152 421 -1920
2021-10-21 10:17:11 GMT 53.508591 -2.392194 22,950 152 422 -1920
2021-10-21 10:17:08 GMT 53.513626 -2.396511 23,000 152 423 -1920
2021-10-21 10:17:05 GMT 53.516922 -2.399414 23,100 152 423 -1920
2021-10-21 10:17:03 GMT 53.521854 -2.403663 23,250 152 423 -1920
2021-10-21 10:17:00 GMT 53.526367 -2.407541 23,250 152 423 -1920
2021-10-21 10:16:58 GMT 53.535141 -2.415109 23,400 152 423 -1920
2021-10-21 10:16:55 GMT 53.535141 -2.415109 23,475 152 423 -1920
2021-10-21 10:16:52 GMT 53.539776 -2.419093 23,525 152 423 -1920
2021-10-21 10:16:50 GMT 53.543594 -2.422405 23,550 152 423 -1920
2021-10-21 10:16:48 GMT 53.547318 -2.425703 23,650 152 423 -1920
2021-10-21 10:16:45 GMT 53.554207 -2.431614 23,750 152 425 -1984
2021-10-21 10:16:42 GMT 53.558071 -2.434926 23,825 152 425 -1984
2021-10-21 10:16:40 GMT 53.561783 -2.438180 23,900 152 425 -1984
2021-10-21 10:16:36 GMT 53.568871 -2.444296 24,050 152 425 -1984
2021-10-21 10:16:34 GMT 53.571476 -2.446558 24,100 152 425 -1984
2021-10-21 10:16:31 GMT 53.577301 -2.451599 24,200 152 425 -2048
2021-10-21 10:16:29 GMT 53.580093 -2.454032 24,300 152 425 -2048
2021-10-21 10:16:27 GMT 53.583435 -2.456935 24,350 152 425 -2048
2021-10-21 10:16:24 GMT 53.588562 -2.461422 24,450 152 425 -1984
2021-10-21 10:16:21 GMT 53.594055 -2.466195 24,500 152 425 -1984
2021-10-21 10:16:18 GMT 53.601059 -2.472238 24,650 152 426 -2048
2021-10-21 10:16:15 GMT 53.610489 -2.480399 24,775 152 426 -2048
2021-10-21 10:16:12 GMT 53.610489 -2.480399 24,825 152 427 -2048
2021-10-21 10:16:10 GMT 53.612350 -2.482022 24,875 152 427 -2048
2021-10-21 10:16:08 GMT 53.616539 -2.485657 25,575 152 430 -1984
2021-10-21 10:16:05 GMT 53.621750 -2.490130 25,200 152 429 -2048
2021-10-21 10:16:02 GMT 53.626408 -2.494220 25,175 152 429 -2048
2021-10-21 10:16:00 GMT 53.629948 -2.497289 25,200 152 429 -2048
2021-10-21 10:15:58 GMT 53.635208 -2.501894 25,325 152 431 -1984
2021-10-21 10:15:55 GMT 53.641479 -2.507315 25,500 152 431 -1984
2021-10-21 10:15:52 GMT 53.645187 -2.510533 25,475 152 432 -2048
2021-10-21 10:15:50 GMT 53.647842 -2.512887 25,575 152 432 -1984
2021-10-21 10:15:48 GMT 53.653198 -2.517517 25,625 152 433 -1920
2021-10-21 10:15:45 GMT 53.657879 -2.521605 25,700 152 433 -2048
2021-10-21 10:15:43 GMT 53.660393 -2.523786 25,750 152 433 -2112
2021-10-21 10:15:41 GMT 53.664627 -2.527502 25,925 152 433 -2368
2021-10-21 10:15:38 GMT 53.671829 -2.533761 26,025 152 433 -2560
2021-10-21 10:15:35 GMT 53.676270 -2.537685 26,100 152 433 -2752
2021-10-21 10:15:32 GMT 53.680828 -2.541639 26,225 152 432 -2880
2021-10-21 10:15:30 GMT 53.684181 -2.544547 26,275 152 432 -2944
2021-10-21 10:15:28 GMT 53.688091 -2.547940 26,425 152 431 -2944
2021-10-21 10:15:25 GMT 53.693539 -2.552706 26,600 152 430 -2560
2021-10-21 10:15:23 GMT 53.697773 -2.556422 26,775 152 428 -2112
2021-10-21 10:15:20 GMT 53.701313 -2.559491 26,750 152 428 -1856
2021-10-21 10:15:18 GMT 53.706387 -2.563934 26,850 152 428 -1088
2021-10-21 10:15:15 GMT 53.711197 -2.568133 26,900 152 428 -704
2021-10-21 10:15:13 GMT 53.714626 -2.571124 26,900 152 428 -704
2021-10-21 10:15:11 GMT 53.718063 -2.574097 26,925 152 428 -640
2021-10-21 10:15:09 GMT 53.726440 -2.581395 26,950 152 428 -384
2021-10-21 10:15:07 GMT 53.726440 -2.581395 26,975 152 428 -320
2021-10-21 10:15:04 GMT 53.730221 -2.584695 26,975 152 428 -256
2021-10-21 10:15:01 GMT 53.734543 -2.588457 27,000 152 426 -128
2021-10-21 10:14:59 GMT 53.738834 -2.592208 27,000 152 426 0
2021-10-21 10:14:57 GMT 53.742233 -2.595206 27,000 152 428 0
2021-10-21 10:14:54 GMT 53.747131 -2.599522 27,000 152 428 0
2021-10-21 10:14:51 GMT 53.752472 -2.604164 27,000 152 428 -64
2021-10-21 10:14:49 GMT 53.756058 -2.607291 27,000 152 428 -64
2021-10-21 10:14:47 GMT 53.760635 -2.611293 27,000 152 428 -64
2021-10-21 10:14:44 GMT 53.765167 -2.615295 27,000 152 428 0
2021-10-21 10:14:41 GMT 53.769058 -2.618670 27,000 152 428 0
2021-10-21 10:14:39 GMT 53.774586 -2.623471 27,000 152 428 0
2021-10-21 10:14:37 GMT 53.778168 -2.626596 27,000 152 428 0
2021-10-21 10:14:34 GMT 53.783569 -2.631383 27,000 152 428 0
2021-10-21 10:14:31 GMT 53.787415 -2.634757 27,000 152 428 -64
2021-10-21 10:14:29 GMT 53.790939 -2.637817 27,000 152 428 -64
2021-10-21 10:14:27 GMT 53.794464 -2.640956 27,000 152 427 -64
2021-10-21 10:14:24 GMT 53.799629 -2.645443 27,000 152 427 0
2021-10-21 10:14:21 GMT 53.808426 -2.653198 27,000 152 427 0
2021-10-21 10:14:19 GMT 53.808426 -2.653198 27,000 152 427 64
2021-10-21 10:14:17 GMT 53.812572 -2.656833 27,000 152 427 64
2021-10-21 10:14:14 GMT 53.818855 -2.662407 27,000 152 427 64
2021-10-21 10:14:10 GMT 53.825958 -2.668579 27,000 152 427 64
2021-10-21 10:14:07 GMT 53.830124 -2.672267 27,000 152 427 64
2021-10-21 10:14:04 GMT 53.834591 -2.676221 27,000 152 427 64
2021-10-21 10:14:02 GMT 53.838779 -2.679937 27,000 152 427 0
2021-10-21 10:14:00 GMT 53.843262 -2.683803 27,000 152 427 0
2021-10-21 10:13:57 GMT 53.848415 -2.688419 27,000 152 427 0
2021-10-21 10:13:54 GMT 53.852093 -2.691650 27,000 152 427 -64
2021-10-21 10:13:52 GMT 53.856537 -2.695574 27,000 152 427 -64
2021-10-21 10:13:50 GMT 53.860847 -2.699325 27,000 152 427 -64
2021-10-21 10:13:47 GMT 53.864662 -2.702718 27,000 152 427 -64
2021-10-21 10:13:44 GMT 53.871506 -2.708695 27,000 152 426 0
2021-10-21 10:13:41 GMT 53.875076 -2.711897 27,000 152 426 0
2021-10-21 10:13:39 GMT 53.879513 -2.715804 27,000 152 426 0
2021-10-21 10:13:37 GMT 53.883190 -2.719035 27,000 152 426 64
2021-10-21 10:13:34 GMT 53.888081 -2.723398 27,000 152 426 64
2021-10-21 10:13:32 GMT 53.891327 -2.726179 27,000 152 426 64
2021-10-21 10:13:29 GMT 53.896832 -2.731072 27,000 152 426 64
2021-10-21 10:13:27 GMT 53.900391 -2.734183 26,975 152 426 64
2021-10-21 10:13:24 GMT 53.905724 -2.738908 26,975 152 426 0
2021-10-21 10:13:21 GMT 53.909027 -2.741816 26,975 152 426 0
2021-10-21 10:13:19 GMT 53.912846 -2.745209 26,975 152 426 0
2021-10-21 10:13:17 GMT 53.917282 -2.749093 26,975 152 426 0
2021-10-21 10:13:14 GMT 53.923050 -2.754194 26,975 152 426 -64
2021-10-21 10:13:11 GMT 53.926712 -2.757411 27,000 152 426 -64
2021-10-21 10:13:09 GMT 53.930054 -2.760315 27,000 152 426 -64
2021-10-21 10:13:07 GMT 53.935703 -2.765404 27,000 152 426 -64
2021-10-21 10:13:04 GMT 53.940857 -2.769889 27,000 152 426 0
2021-10-21 10:13:01 GMT 53.945023 -2.773577 27,000 152 426 -64
2021-10-21 10:12:58 GMT 53.949234 -2.777344 27,000 152 426 0
2021-10-21 10:12:56 GMT 53.954636 -2.782052 27,000 152 426 0
2021-10-21 10:12:53 GMT 53.958984 -2.785976 27,000 152 426 0
2021-10-21 10:12:50 GMT 53.963150 -2.789664 27,000 152 426 0
2021-10-21 10:12:48 GMT 53.966564 -2.792628 27,000 152 426 0
2021-10-21 10:12:46 GMT 53.970570 -2.796263 27,000 152 426 0
2021-10-21 10:12:43 GMT 53.976059 -2.801121 27,000 152 426 0
2021-10-21 10:12:41 GMT 53.980347 -2.804907 26,975 152 426 0
2021-10-21 10:12:38 GMT 53.984070 -2.808184 27,000 152 426 0
2021-10-21 10:12:36 GMT 53.988541 -2.812177 26,975 152 426 0
2021-10-21 10:12:33 GMT 53.993317 -2.816424 27,000 152 426 0
2021-10-21 10:12:30 GMT 53.998718 -2.821211 26,975 152 426 0
2021-10-21 10:12:28 GMT 54.002319 -2.824375 27,000 152 425 0
2021-10-21 10:12:26 GMT 54.005859 -2.827567 27,000 152 425 0
2021-10-21 10:12:23 GMT 54.011536 -2.832534 27,000 152 425 0
2021-10-21 10:12:21 GMT 54.016750 -2.837219 27,000 152 425 0
2021-10-21 10:12:18 GMT 54.019356 -2.839481 27,000 152 425 -64
2021-10-21 10:12:16 GMT 54.023621 -2.843340 27,000 152 425 0
2021-10-21 10:12:14 GMT 54.027039 -2.846348 27,000 152 425 0
2021-10-21 10:12:11 GMT 54.032436 -2.851114 27,000 152 425 0
2021-10-21 10:12:08 GMT 54.036629 -2.854830 27,000 152 425 0
2021-10-21 10:12:06 GMT 54.044636 -2.861938 27,000 152 425 -64
2021-10-21 10:12:04 GMT 54.044636 -2.861938 27,000 152 425 -64
2021-10-21 10:12:01 GMT 54.053238 -2.869629 27,000 152 425 -64
2021-10-21 10:11:59 GMT 54.053238 -2.869629 27,000 152 425 -64
2021-10-21 10:11:56 GMT 54.060013 -2.875671 27,000 152 426 0
2021-10-21 10:11:53 GMT 54.064465 -2.879630 27,000 152 426 0
2021-10-21 10:11:50 GMT 54.068653 -2.883346 27,000 152 426 0
2021-10-21 10:11:48 GMT 54.076767 -2.890581 27,000 152 426 0
2021-10-21 10:11:45 GMT 54.080429 -2.893799 27,000 152 426 0
2021-10-21 10:11:43 GMT 54.080429 -2.893799 27,000 152 426 0
2021-10-21 10:11:41 GMT 54.086151 -2.898900 27,000 152 426 0
2021-10-21 10:11:38 GMT 54.095215 -2.906982 27,000 152 426 -64
2021-10-21 10:11:35 GMT 54.095215 -2.906982 27,000 152 425 -64
2021-10-21 10:11:33 GMT 54.097824 -2.909337 27,000 152 425 0
2021-10-21 10:11:30 GMT 54.104965 -2.915693 27,000 152 425 0
2021-10-21 10:11:27 GMT 54.108551 -2.918809 27,000 152 425 64
2021-10-21 10:11:25 GMT 54.112740 -2.922525 27,000 152 426 64
2021-10-21 10:11:23 GMT 54.119614 -2.928720 27,000 152 425 64
2021-10-21 10:11:21 GMT 54.119614 -2.928720 27,000 152 425 64
2021-10-21 10:11:19 GMT 54.122143 -2.930926 27,000 152 426 64
2021-10-21 10:11:16 GMT 54.128311 -2.936489 27,000 152 426 0
2021-10-21 10:11:13 GMT 54.133640 -2.941185 27,000 152 426 0
2021-10-21 10:11:10 GMT 54.138290 -2.945356 27,000 152 426 0
2021-10-21 10:11:08 GMT 54.141834 -2.948537 27,000 152 427 0
2021-10-21 10:11:06 GMT 54.144562 -2.950928 27,000 152 426 0
2021-10-21 10:11:04 GMT 54.148590 -2.954538 27,000 152 427 0
2021-10-21 10:11:02 GMT 54.151199 -2.956892 27,000 152 427 -64
2021-10-21 10:11:00 GMT 54.155663 -2.960896 27,000 152 428 -64
2021-10-21 10:10:57 GMT 54.161060 -2.965743 27,000 152 428 -64
2021-10-21 10:10:54 GMT 54.166214 -2.970311 27,000 152 428 -64
2021-10-21 10:10:52 GMT 54.169441 -2.973256 27,000 152 428 -64
2021-10-21 10:10:50 GMT 54.177383 -2.980355 27,000 152 427 0
2021-10-21 10:10:48 GMT 54.180286 -2.982869 27,000 152 427 0
2021-10-21 10:10:44 GMT 54.184570 -2.986712 27,000 152 427 0
2021-10-21 10:10:42 GMT 54.186897 -2.988847 27,000 152 427 0
2021-10-21 10:10:40 GMT 54.190338 -2.991891 27,000 152 427 0
2021-10-21 10:10:37 GMT 54.200638 -3.001072 27,000 152 428 0
2021-10-21 10:10:35 GMT 54.200638 -3.001072 27,000 152 428 0
2021-10-21 10:10:32 GMT 54.204117 -3.004211 27,000 152 428 0
2021-10-21 10:10:30 GMT 54.207893 -3.007588 27,000 152 428 0
2021-10-21 10:10:27 GMT 54.214096 -3.013157 27,000 152 428 0
2021-10-21 10:10:25 GMT 54.216087 -3.014939 27,000 152 428 0
2021-10-21 10:10:23 GMT 54.220787 -3.019140 27,000 152 428 0
2021-10-21 10:10:20 GMT 54.225266 -3.023202 27,000 152 428 64
2021-10-21 10:10:18 GMT 54.229725 -3.027137 27,000 152 428 0
2021-10-21 10:10:16 GMT 54.231537 -3.028852 27,000 152 428 0
2021-10-21 10:10:14 GMT 54.235428 -3.032305 27,000 152 428 0
2021-10-21 10:10:12 GMT 54.239876 -3.036266 27,000 152 428 0
2021-10-21 10:10:10 GMT 54.245087 -3.040951 27,000 152 428 0
2021-10-21 10:10:07 GMT 54.249138 -3.044586 27,000 152 428 0
2021-10-21 10:10:05 GMT 54.255524 -3.050354 27,000 152 428 0
2021-10-21 10:10:03 GMT 54.255524 -3.050354 27,000 152 428 0
2021-10-21 10:10:01 GMT 54.259102 -3.053553 27,000 152 428 0
2021-10-21 10:09:58 GMT 54.264954 -3.058829 27,000 152 428 0
2021-10-21 10:09:56 GMT 54.266781 -3.060500 27,000 152 428 64
2021-10-21 10:09:54 GMT 54.270401 -3.063695 27,000 152 428 0
2021-10-21 10:09:52 GMT 54.274750 -3.067618 27,000 152 428 0
2021-10-21 10:09:49 GMT 54.280979 -3.073259 27,000 152 428 0
2021-10-21 10:09:46 GMT 54.291183 -3.082473 27,000 152 428 -64
2021-10-21 10:09:43 GMT 54.291183 -3.082473 27,000 152 428 0
2021-10-21 10:09:41 GMT 54.294525 -3.085462 27,000 152 428 0
2021-10-21 10:09:37 GMT 54.300018 -3.090404 27,000 152 428 0
2021-10-21 10:09:35 GMT 54.305557 -3.095398 27,000 152 428 -64
2021-10-21 10:09:32 GMT 54.309586 -3.099033 27,000 152 428 -64
2021-10-21 10:09:30 GMT 54.313335 -3.102472 27,000 152 428 -64
2021-10-21 10:09:28 GMT 54.317780 -3.106465 27,000 152 428 -64
2021-10-21 10:09:25 GMT 54.322086 -3.110379 27,000 152 428 0
2021-10-21 10:09:22 GMT 54.327484 -3.115207 27,000 152 428 0
2021-10-21 10:09:20 GMT 54.331161 -3.118536 27,000 152 428 0
2021-10-21 10:09:17 GMT 54.335167 -3.122198 27,000 152 427 0
2021-10-21 10:09:15 GMT 54.340939 -3.127441 27,000 152 427 0
2021-10-21 10:09:12 GMT 54.345566 -3.131588 27,000 152 427 0
2021-10-21 10:09:09 GMT 54.350204 -3.135764 27,000 152 427 0
2021-10-21 10:09:06 GMT 54.355415 -3.140508 27,000 152 427 0
2021-10-21 10:09:04 GMT 54.358841 -3.143625 27,000 152 427 0
2021-10-21 10:09:02 GMT 54.362587 -3.147000 27,000 151 428 0
2021-10-21 10:08:59 GMT 54.372875 -3.156405 27,000 151 428 0
2021-10-21 10:08:56 GMT 54.372875 -3.156405 27,000 151 428 0
2021-10-21 10:08:54 GMT 54.377151 -3.160266 27,000 151 428 0
2021-10-21 10:08:51 GMT 54.379944 -3.162770 27,000 151 428 0
2021-10-21 10:08:49 GMT 54.383720 -3.166226 27,000 151 428 0
2021-10-21 10:08:47 GMT 54.388096 -3.170222 27,000 151 428 64
2021-10-21 10:08:45 GMT 54.393768 -3.175372 27,000 151 428 64
2021-10-21 10:08:41 GMT 54.398117 -3.179330 27,000 151 428 64
2021-10-21 10:08:39 GMT 54.402649 -3.183450 27,000 151 428 64
2021-10-21 10:08:36 GMT 54.407913 -3.188216 27,000 152 429 0
2021-10-21 10:08:34 GMT 54.412163 -3.192111 27,000 152 429 0
2021-10-21 10:08:31 GMT 54.415516 -3.195107 27,000 152 429 0
2021-10-21 10:08:29 GMT 54.419518 -3.198769 27,000 152 428 0
2021-10-21 10:08:26 GMT 54.425903 -3.204534 27,000 152 428 0
2021-10-21 10:08:24 GMT 54.428455 -3.206843 27,000 152 428 0
2021-10-21 10:08:21 GMT 54.432972 -3.211004 27,000 152 428 0
2021-10-21 10:08:19 GMT 54.437534 -3.215082 27,000 152 428 0
2021-10-21 10:08:16 GMT 54.441467 -3.218671 27,000 152 428 0
2021-10-21 10:08:14 GMT 54.446915 -3.223518 27,000 152 428 0
2021-10-21 10:08:11 GMT 54.450478 -3.226818 27,000 152 428 0
2021-10-21 10:08:09 GMT 54.455875 -3.231728 27,000 152 428 0
2021-10-21 10:08:05 GMT 54.461510 -3.236722 27,000 152 428 0
2021-10-21 10:08:03 GMT 54.465000 -3.239885 27,000 152 427 -64
2021-10-21 10:08:01 GMT 54.469482 -3.243875 27,000 152 427 0
2021-10-21 10:07:59 GMT 54.471909 -3.246056 27,000 152 427 0
2021-10-21 10:07:57 GMT 54.475334 -3.249123 27,000 152 427 0
2021-10-21 10:07:55 GMT 54.479095 -3.252519 27,000 152 427 0
2021-10-21 10:07:52 GMT 54.484177 -3.257042 27,000 152 428 0
2021-10-21 10:07:50 GMT 54.488525 -3.260920 27,000 152 428 0
2021-10-21 10:07:48 GMT 54.491180 -3.263263 27,000 152 427 0
2021-10-21 10:07:45 GMT 54.498287 -3.269598 27,000 152 427 0
2021-10-21 10:07:42 GMT 54.501709 -3.272633 27,000 152 427 0
2021-10-21 10:07:39 GMT 54.508530 -3.278692 27,000 152 428 0
2021-10-21 10:07:36 GMT 54.513840 -3.283296 27,000 152 428 0
2021-10-21 10:07:33 GMT 54.518051 -3.287012 27,000 152 428 0
2021-10-21 10:07:31 GMT 54.519886 -3.288657 27,000 152 428 0
2021-10-21 10:07:29 GMT 54.524551 -3.292748 27,000 152 428 0
2021-10-21 10:07:26 GMT 54.529129 -3.296706 27,000 152 428 0
2021-10-21 10:07:24 GMT 54.532654 -3.299776 27,000 152 428 0
2021-10-21 10:07:22 GMT 54.537231 -3.303815 27,000 152 428 0
2021-10-21 10:07:20 GMT 54.541393 -3.307467 27,000 152 428 0
2021-10-21 10:07:18 GMT 54.544098 -3.309874 27,000 152 428 0
2021-10-21 10:07:15 GMT 54.549679 -3.314792 27,000 152 428 0
2021-10-21 10:07:13 GMT 54.553116 -3.317790 27,000 152 428 0
2021-10-21 10:07:11 GMT 54.557594 -3.321783 27,000 152 428 64
2021-10-21 10:07:08 GMT 54.563366 -3.326943 27,000 152 428 64
2021-10-21 10:07:05 GMT 54.567673 -3.330796 27,000 152 428 64
2021-10-21 10:07:03 GMT 54.573189 -3.335849 27,000 151 428 64
2021-10-21 10:06:59 GMT 54.576553 -3.338955 26,975 151 428 64
2021-10-21 10:06:57 GMT 54.581085 -3.343156 26,975 151 428 64
2021-10-21 10:06:54 GMT 54.585571 -3.347437 26,975 150 428 0
2021-10-21 10:06:52 GMT 54.589108 -3.350830 26,975 150 428 0
2021-10-21 10:06:50 GMT 54.593536 -3.355112 26,975 149 428 0
2021-10-21 10:06:47 GMT 54.598373 -3.359985 26,975 149 427 0
2021-10-21 10:06:44 GMT 54.603310 -3.365062 26,975 148 428 0
2021-10-21 10:06:41 GMT 54.609592 -3.371554 26,975 148 427 -64
2021-10-21 10:06:38 GMT 54.612946 -3.375133 26,975 148 427 -64
2021-10-21 10:06:36 GMT 54.616058 -3.378457 27,000 148 427 -64
2021-10-21 10:06:34 GMT 54.620159 -3.382874 27,000 148 427 -64
2021-10-21 10:06:32 GMT 54.627235 -3.390364 27,000 148 427 -64
2021-10-21 10:06:30 GMT 54.627235 -3.390364 27,000 148 427 0
2021-10-21 10:06:28 GMT 54.636063 -3.399703 27,000 148 428 0
2021-10-21 10:06:25 GMT 54.636063 -3.399703 27,000 148 428 0
2021-10-21 10:06:22 GMT 54.639908 -3.403904 27,000 148 428 0
2021-10-21 10:06:20 GMT 54.644226 -3.408425 27,000 148 428 0
2021-10-21 10:06:17 GMT 54.648602 -3.413086 27,000 148 428 0
2021-10-21 10:06:14 GMT 54.654655 -3.419578 27,000 148 429 0
2021-10-21 10:06:12 GMT 54.658951 -3.424099 27,000 148 429 0
2021-10-21 10:06:09 GMT 54.661652 -3.427007 27,000 148 429 0
2021-10-21 10:06:07 GMT 54.665268 -3.430897 27,000 148 429 0
2021-10-21 10:06:04 GMT 54.671402 -3.437428 27,000 148 429 0
2021-10-21 10:06:02 GMT 54.679321 -3.445910 27,000 148 429 0
2021-10-21 10:06:00 GMT 54.679321 -3.445910 27,000 148 430 0
2021-10-21 10:05:57 GMT 54.686279 -3.453261 27,000 148 430 0
2021-10-21 10:05:55 GMT 54.686279 -3.453261 27,000 148 430 -64
2021-10-21 10:05:52 GMT 54.691246 -3.458613 27,000 148 430 -64
2021-10-21 10:05:50 GMT 54.694458 -3.462025 27,000 148 430 -64
2021-10-21 10:05:48 GMT 54.697266 -3.464975 27,000 148 430 0
2021-10-21 10:05:46 GMT 54.700607 -3.468610 27,000 148 430 0
2021-10-21 10:05:44 GMT 54.705505 -3.473861 27,000 148 430 0
2021-10-21 10:05:41 GMT 54.709763 -3.478385 27,000 148 430 64
2021-10-21 10:05:39 GMT 54.711540 -3.480252 27,000 148 430 64
2021-10-21 10:05:37 GMT 54.715851 -3.484928 27,000 148 432 0
2021-10-21 10:05:34 GMT 54.720806 -3.490240 27,000 148 430 64
2021-10-21 10:05:32 GMT 54.724388 -3.494068 27,000 148 430 64
2021-10-21 10:05:30 GMT 54.726765 -3.496565 27,000 148 430 64
2021-10-21 10:05:28 GMT 54.736633 -3.507224 27,000 148 432 0
2021-10-21 10:05:25 GMT 54.736633 -3.507224 27,000 148 432 0
2021-10-21 10:05:22 GMT 54.741028 -3.511909 27,000 148 432 0
2021-10-21 10:05:20 GMT 54.744499 -3.515625 27,000 148 432 0
2021-10-21 10:05:17 GMT 54.748993 -3.520472 27,000 148 432 0
2021-10-21 10:05:15 GMT 54.753670 -3.525446 27,000 148 432 0
2021-10-21 10:05:13 GMT 54.757278 -3.529358 27,000 148 432 0
2021-10-21 10:05:11 GMT 54.759911 -3.532188 27,000 148 432 0
2021-10-21 10:05:09 GMT 54.763309 -3.535850 27,000 148 432 0
2021-10-21 10:05:06 GMT 54.768566 -3.541509 27,000 148 432 0
2021-10-21 10:05:04 GMT 54.771965 -3.545172 27,000 148 432 0
2021-10-21 10:05:02 GMT 54.775406 -3.548826 27,000 148 432 0
2021-10-21 10:05:00 GMT 54.778656 -3.552300 27,000 148 432 0
2021-10-21 10:04:58 GMT 54.781788 -3.555742 27,000 148 432 0
2021-10-21 10:04:56 GMT 54.786163 -3.560403 27,000 148 432 0
2021-10-21 10:04:53 GMT 54.791336 -3.566033 27,000 148 432 0
2021-10-21 10:04:51 GMT 54.793800 -3.568642 27,000 148 432 0
2021-10-21 10:04:49 GMT 54.798222 -3.573386 27,000 148 432 0
2021-10-21 10:04:46 GMT 54.802597 -3.578131 27,000 148 432 0
2021-10-21 10:04:44 GMT 54.807858 -3.583790 27,000 148 432 0
2021-10-21 10:04:41 GMT 54.811157 -3.587359 27,000 148 432 0
2021-10-21 10:04:38 GMT 54.816925 -3.593579 27,000 148 432 0
2021-10-21 10:04:34 GMT 54.822941 -3.600103 27,000 148 432 64
2021-10-21 10:04:31 GMT 54.828140 -3.605697 27,000 148 432 64
2021-10-21 10:04:29 GMT 54.832951 -3.610923 27,000 148 432 64
2021-10-21 10:04:26 GMT 54.836426 -3.614664 27,000 148 432 64
2021-10-21 10:04:24 GMT 54.844208 -3.623065 27,000 147 431 0
2021-10-21 10:04:21 GMT 54.844208 -3.623065 27,000 147 431 0
2021-10-21 10:04:19 GMT 54.848312 -3.627569 27,000 147 431 -64
2021-10-21 10:04:16 GMT 54.853062 -3.632646 27,000 147 431 -64
2021-10-21 10:04:14 GMT 54.856274 -3.636142 27,000 148 432 -64
2021-10-21 10:04:12 GMT 54.860413 -3.640675 27,000 148 432 -64
2021-10-21 10:04:10 GMT 54.863983 -3.644472 27,000 148 432 -128
2021-10-21 10:04:08 GMT 54.867188 -3.647946 27,025 148 432 -64
2021-10-21 10:04:05 GMT 54.870842 -3.651955 27,025 148 432 -64
2021-10-21 10:04:03 GMT 54.875217 -3.656699 27,025 148 432 -64
2021-10-21 10:04:01 GMT 54.878803 -3.660528 27,025 148 432 -64
2021-10-21 10:03:59 GMT 54.882526 -3.664606 27,025 148 432 -64
2021-10-21 10:03:57 GMT 54.885227 -3.667519 27,025 148 432 0
2021-10-21 10:03:54 GMT 54.890213 -3.672907 27,025 147 431 0
2021-10-21 10:03:52 GMT 54.892914 -3.675815 27,000 147 431 0
2021-10-21 10:03:49 GMT 54.898403 -3.681835 27,000 147 431 0
2021-10-21 10:03:47 GMT 54.902824 -3.686579 27,000 147 431 0
2021-10-21 10:03:45 GMT 54.905273 -3.689225 27,000 147 431 0
2021-10-21 10:03:43 GMT 54.909302 -3.693587 27,000 148 432 0
2021-10-21 10:03:40 GMT 54.914463 -3.699230 27,000 148 432 0
2021-10-21 10:03:37 GMT 54.919395 -3.704473 27,000 148 432 0
2021-10-21 10:03:34 GMT 54.926987 -3.712713 27,000 148 432 -64
2021-10-21 10:03:31 GMT 54.929733 -3.715709 27,000 148 432 -64
2021-10-21 10:03:29 GMT 54.932247 -3.718456 27,000 148 432 0
2021-10-21 10:03:27 GMT 54.942490 -3.729535 27,000 148 432 0
2021-10-21 10:03:24 GMT 54.942490 -3.729535 27,000 148 431 0
2021-10-21 10:03:21 GMT 54.945606 -3.732855 27,000 148 431 0
2021-10-21 10:03:19 GMT 54.950680 -3.738348 27,000 148 431 0
2021-10-21 10:03:16 GMT 54.953892 -3.741843 27,000 148 431 64
2021-10-21 10:03:14 GMT 54.962692 -3.751415 27,000 148 431 64
2021-10-21 10:03:12 GMT 54.962692 -3.751415 27,000 148 431 64
2021-10-21 10:03:09 GMT 54.967255 -3.756325 27,000 148 431 64
2021-10-21 10:03:07 GMT 54.970871 -3.760232 27,000 147 431 64
2021-10-21 10:03:04 GMT 54.980484 -3.770734 27,000 147 431 64
2021-10-21 10:03:01 GMT 54.980484 -3.770734 27,000 147 431 64
2021-10-21 10:02:59 GMT 54.987442 -3.778247 26,975 147 431 128
2021-10-21 10:02:57 GMT 54.987442 -3.778247 26,975 148 432 128
2021-10-21 10:02:54 GMT 54.994171 -3.785598 26,975 147 433 256
2021-10-21 10:02:51 GMT 54.997421 -3.789152 26,975 147 433 320
2021-10-21 10:02:49 GMT 55.000538 -3.792530 26,950 147 433 448
2021-10-21 10:02:47 GMT 55.004261 -3.796609 26,950 147 433 512
2021-10-21 10:02:44 GMT 55.009415 -3.802239 26,900 147 433 768
2021-10-21 10:02:42 GMT 55.011898 -3.804932 26,900 147 433 896
2021-10-21 10:02:39 GMT 55.017883 -3.811529 26,825 147 433 1152
2021-10-21 10:02:37 GMT 55.021534 -3.815502 26,800 147 433 1280
2021-10-21 10:02:34 GMT 55.026794 -3.821161 26,725 147 433 1536
2021-10-21 10:02:31 GMT 55.031544 -3.826405 26,650 147 432 1792
2021-10-21 10:02:29 GMT 55.034058 -3.829152 26,575 147 431 1920
2021-10-21 10:02:27 GMT 55.042667 -3.838556 26,475 147 431 2048
2021-10-21 10:02:25 GMT 55.042667 -3.838556 26,400 147 431 2048
2021-10-21 10:02:22 GMT 55.046127 -3.842307 26,350 147 431 1984
2021-10-21 10:02:19 GMT 55.051605 -3.848294 26,250 147 430 1856
2021-10-21 10:02:17 GMT 55.055099 -3.852081 26,200 147 430 1792
2021-10-21 10:02:15 GMT 55.062836 -3.860563 26,100 147 430 1728
2021-10-21 10:02:12 GMT 55.062836 -3.860563 26,025 147 428 1792
2021-10-21 10:02:09 GMT 55.067760 -3.865939 25,925 147 428 1792
2021-10-21 10:02:07 GMT 55.071716 -3.870257 25,900 147 428 1856
2021-10-21 10:02:04 GMT 55.077305 -3.876426 25,800 147 427 1984
2021-10-21 10:02:01 GMT 55.080841 -3.880255 25,725 147 427 1984
2021-10-21 10:01:59 GMT 55.084900 -3.884717 25,600 147 426 2112
2021-10-21 10:01:57 GMT 55.088474 -3.888661 25,500 147 426 2240
2021-10-21 10:01:55 GMT 55.091904 -3.892391 25,500 147 426 2240
2021-10-21 10:01:53 GMT 55.094421 -3.895138 25,375 147 426 2176
2021-10-21 10:01:50 GMT 55.099091 -3.900227 25,300 147 426 2048
2021-10-21 10:01:48 GMT 55.102570 -3.904105 25,275 147 426 2048
2021-10-21 10:01:46 GMT 55.106628 -3.908553 24,900 147 426 2048
2021-10-21 10:01:43 GMT 55.111984 -3.914462 25,075 147 425 2112
2021-10-21 10:01:39 GMT 55.118130 -3.921204 24,925 147 425 2304
2021-10-21 10:01:37 GMT 55.122272 -3.925698 24,850 147 425 2368
2021-10-21 10:01:35 GMT 55.124599 -3.928278 24,700 147 425 2560
2021-10-21 10:01:32 GMT 55.129532 -3.933671 23,800 147 428 2944
2021-10-21 10:01:30 GMT 55.133118 -3.937600 24,025 147 426 2944
2021-10-21 10:01:27 GMT 55.138687 -3.943688 24,375 147 427 3008
2021-10-21 10:01:25 GMT 55.142853 -3.948292 24,200 147 428 2944
2021-10-21 10:01:22 GMT 55.145554 -3.951201 24,125 147 428 2752
2021-10-21 10:01:20 GMT 55.149830 -3.955910 24,075 147 430 2624
2021-10-21 10:01:18 GMT 55.153183 -3.959573 23,975 147 430 2560
2021-10-21 10:01:16 GMT 55.157372 -3.964150 23,825 147 428 2048
2021-10-21 10:01:13 GMT 55.161346 -3.968569 23,800 147 430 2176
2021-10-21 10:01:11 GMT 55.164776 -3.972307 23,750 147 430 2112
2021-10-21 10:01:08 GMT 55.170315 -3.978382 23,600 147 428 2048
2021-10-21 10:01:06 GMT 55.173065 -3.981413 23,450 147 427 2112
2021-10-21 10:01:03 GMT 55.178238 -3.987149 23,450 147 427 2368
2021-10-21 10:01:01 GMT 55.180836 -3.989951 23,325 147 427 2304
2021-10-21 10:00:58 GMT 55.187214 -3.996943 23,225 147 427 2624
2021-10-21 10:00:55 GMT 55.191544 -4.001770 22,950 147 427 2880
2021-10-21 10:00:52 GMT 55.196777 -4.007506 22,975 147 427 2880
2021-10-21 10:00:49 GMT 55.201813 -4.013079 22,825 147 429 2944
2021-10-21 10:00:47 GMT 55.209419 -4.021412 22,350 147 429 2880
2021-10-21 10:00:44 GMT 55.209419 -4.021412 22,500 147 429 2944
2021-10-21 10:00:41 GMT 55.214859 -4.027459 22,475 147 429 2880
2021-10-21 10:00:38 GMT 55.221008 -4.034230 22,275 147 430 2816
2021-10-21 10:00:35 GMT 55.226036 -4.039806 22,125 147 430 2752
2021-10-21 10:00:32 GMT 55.230412 -4.044633 22,000 147 430 2688
2021-10-21 10:00:28 GMT 55.238205 -4.053309 21,800 147 430 2560
2021-10-21 10:00:25 GMT 55.241730 -4.057186 21,375 147 430 2432
2021-10-21 10:00:22 GMT 55.247356 -4.063443 21,550 147 429 2304
2021-10-21 10:00:20 GMT 55.250523 -4.066939 21,525 147 429 2240
2021-10-21 10:00:18 GMT 55.253128 -4.069788 21,425 147 428 2240
2021-10-21 10:00:16 GMT 55.256790 -4.073908 21,375 147 428 2240
2021-10-21 10:00:14 GMT 55.260906 -4.078425 21,225 147 426 2624
2021-10-21 10:00:11 GMT 55.265671 -4.083683 21,100 147 426 2624
2021-10-21 10:00:08 GMT 55.273056 -4.091908 21,025 147 426 2688
2021-10-21 10:00:04 GMT 55.276611 -4.095881 20,875 147 426 2688
2021-10-21 10:00:01 GMT 55.283016 -4.102977 20,575 147 425 3328
2021-10-21 09:59:58 GMT 55.290894 -4.111714 20,575 147 425 3008
2021-10-21 09:59:56 GMT 55.290894 -4.111714 20,475 147 425 3072
2021-10-21 09:59:53 GMT 55.295959 -4.117293 20,300 147 425 3456
2021-10-21 09:59:50 GMT 55.299263 -4.121038 20,125 147 426 3520
2021-10-21 09:59:47 GMT 55.304489 -4.126820 20,000 147 426 3584
2021-10-21 09:59:45 GMT 55.308716 -4.131525 19,750 147 428 3584
2021-10-21 09:59:42 GMT 55.313416 -4.136769 19,675 147 429 3520
2021-10-21 09:59:40 GMT 55.316906 -4.140680 19,550 147 429 3520
2021-10-21 09:59:37 GMT 55.322773 -4.147172 19,300 147 431 3264
2021-10-21 09:59:34 GMT 55.327335 -4.152249 19,175 147 432 3136
2021-10-21 09:59:31 GMT 55.337494 -4.163576 18,900 147 433 2752
2021-10-21 09:59:28 GMT 55.337494 -4.163576 18,900 147 433 2880
2021-10-21 09:59:26 GMT 55.345963 -4.172947 18,675 147 433 2560
2021-10-21 09:59:23 GMT 55.345963 -4.172947 18,600 147 432 2432
2021-10-21 09:59:20 GMT 55.351124 -4.178716 18,525 147 432 2368
2021-10-21 09:59:17 GMT 55.357689 -4.186041 18,400 147 431 2432
2021-10-21 09:59:13 GMT 55.361938 -4.190799 18,225 147 431 2432
2021-10-21 09:59:10 GMT 55.368767 -4.198359 18,125 147 430 2432
2021-10-21 09:59:07 GMT 55.373016 -4.203078 18,025 147 428 2432
2021-10-21 09:59:03 GMT 55.379562 -4.210349 17,775 147 427 2304
2021-10-21 09:59:00 GMT 55.384315 -4.215670 17,750 147 426 2304
2021-10-21 09:58:58 GMT 55.387806 -4.219582 17,675 147 426 2304
2021-10-21 09:58:56 GMT 55.392014 -4.224324 17,550 147 425 2304
2021-10-21 09:58:53 GMT 55.394531 -4.227071 17,500 147 425 2304
2021-10-21 09:58:51 GMT 55.398834 -4.231917 17,275 147 423 2432
2021-10-21 09:58:48 GMT 55.403866 -4.237560 17,275 147 423 2368
2021-10-21 09:58:46 GMT 55.407074 -4.241127 17,150 147 423 2496
2021-10-21 09:58:44 GMT 55.410370 -4.244762 17,100 147 422 2496
2021-10-21 09:58:41 GMT 55.416203 -4.251293 16,825 147 421 2432
2021-10-21 09:58:38 GMT 55.420532 -4.256233 16,875 147 421 2368
2021-10-21 09:58:36 GMT 55.423691 -4.259706 16,775 147 420 2240
2021-10-21 09:58:34 GMT 55.427628 -4.264069 16,700 147 417 2240
2021-10-21 09:58:31 GMT 55.433426 -4.270602 16,475 147 418 2176
2021-10-21 09:58:28 GMT 55.437477 -4.275180 16,500 147 418 2176
2021-10-21 09:58:26 GMT 55.439850 -4.277802 16,425 147 417 2240
2021-10-21 09:58:24 GMT 55.443283 -4.281598 16,200 147 417 2368
2021-10-21 09:58:20 GMT 55.450001 -4.289131 16,100 147 414 2624
2021-10-21 09:58:17 GMT 55.455029 -4.294710 16,050 147 413 2752
2021-10-21 09:58:15 GMT 55.457840 -4.297902 16,025 147 413 2752
2021-10-21 09:58:12 GMT 55.464294 -4.305059 15,800 147 412 2688
2021-10-21 09:58:09 GMT 55.468529 -4.309816 15,675 147 412 2624
2021-10-21 09:58:06 GMT 55.473404 -4.315297 15,500 147 410 2432
2021-10-21 09:58:03 GMT 55.476395 -4.318657 15,500 147 410 2432
2021-10-21 09:58:00 GMT 55.481873 -4.324785 15,275 147 407 2304
2021-10-21 09:57:57 GMT 55.486816 -4.330278 15,200 147 406 2304
2021-10-21 09:57:54 GMT 55.492355 -4.336520 15,075 147 405 2368
2021-10-21 09:57:51 GMT 55.496693 -4.341316 14,975 147 404 2496
2021-10-21 09:57:48 GMT 55.500549 -4.345675 14,850 147 402 2624
2021-10-21 09:57:46 GMT 55.505264 -4.350919 14,725 147 401 2624
2021-10-21 09:57:43 GMT 55.508282 -4.354362 14,650 147 401 2560
2021-10-21 09:57:39 GMT 55.516479 -4.363570 14,450 147 399 2176
2021-10-21 09:57:35 GMT 55.522247 -4.370062 14,275 147 396 1984
2021-10-21 09:57:32 GMT 55.526413 -4.374723 14,175 147 393 2240
2021-10-21 09:57:29 GMT 55.530163 -4.378910 14,025 147 391 2624
2021-10-21 09:57:26 GMT 55.535049 -4.384403 14,025 147 392 2496
2021-10-21 09:57:23 GMT 55.539871 -4.389870 13,825 147 391 2880
2021-10-21 09:57:20 GMT 55.543755 -4.394274 13,725 147 391 3008
2021-10-21 09:57:17 GMT 55.549622 -4.400773 13,550 147 390 2880
2021-10-21 09:57:13 GMT 55.559464 -4.411926 13,275 147 388 2752
2021-10-21 09:57:10 GMT 55.559464 -4.411926 13,250 147 388 2688
2021-10-21 09:57:07 GMT 55.564911 -4.418002 13,100 147 387 2688
2021-10-21 09:57:05 GMT 55.570221 -4.423995 13,000 147 386 2624
2021-10-21 09:57:03 GMT 55.570221 -4.423995 12,950 147 386 2560
2021-10-21 09:56:59 GMT 55.576298 -4.430838 12,750 147 383 2368
2021-10-21 09:56:56 GMT 55.580624 -4.435730 12,675 147 383 2304
2021-10-21 09:56:53 GMT 55.590179 -4.446467 12,450 147 378 2112
2021-10-21 09:56:50 GMT 55.590179 -4.446467 11,925 147 378 2112
2021-10-21 09:56:47 GMT 55.593193 -4.449892 12,350 147 371 2368
2021-10-21 09:56:45 GMT 55.597012 -4.454184 12,275 147 374 2240
2021-10-21 09:56:42 GMT 55.600502 -4.458132 12,100 147 371 2432
2021-10-21 09:56:39 GMT 55.605652 -4.463945 11,975 147 369 2624
2021-10-21 09:56:36 GMT 55.610046 -4.468946 11,900 147 369 2624
2021-10-21 09:56:34 GMT 55.613026 -4.472380 11,750 147 367 2880
2021-10-21 09:56:31 GMT 55.617416 -4.477262 11,650 147 366 3008
2021-10-21 09:56:28 GMT 55.620255 -4.480508 11,550 147 366 3072
2021-10-21 09:56:25 GMT 55.625549 -4.486628 11,350 147 365 3008
2021-10-21 09:56:23 GMT 55.632950 -4.495039 11,200 147 364 2816
2021-10-21 09:56:20 GMT 55.632950 -4.495039 11,050 147 363 2432
2021-10-21 09:56:16 GMT 55.638023 -4.500790 10,950 147 361 2112
2021-10-21 09:56:14 GMT 55.641376 -4.504652 10,875 147 360 1920
2021-10-21 09:56:12 GMT 55.643612 -4.507141 10,800 147 356 1472
2021-10-21 09:56:09 GMT 55.648636 -4.512967 10,750 146 353 1280
2021-10-21 09:56:06 GMT 55.652481 -4.517378 10,700 146 349 1280
2021-10-21 09:56:04 GMT 55.656460 -4.521990 10,625 146 344 1344
2021-10-21 09:56:01 GMT 55.658463 -4.524307 10,600 146 344 1344
2021-10-21 09:55:59 GMT 55.662045 -4.528427 10,550 146 340 1344
2021-10-21 09:55:56 GMT 55.665939 -4.532942 10,475 146 334 1344
2021-10-21 09:55:53 GMT 55.674057 -4.542503 10,400 146 329 1344
2021-10-21 09:55:50 GMT 55.674057 -4.542503 10,350 146 327 1472
2021-10-21 09:55:47 GMT 55.680946 -4.550571 10,250 146 321 2048
2021-10-21 09:55:44 GMT 55.680946 -4.550571 10,150 146 320 2624
2021-10-21 09:55:41 GMT 55.683926 -4.554090 10,050 146 318 3136
2021-10-21 09:55:38 GMT 55.688736 -4.559742 9,800 146 318 3264
2021-10-21 09:55:35 GMT 55.691666 -4.563155 9,625 146 316 3136
2021-10-21 09:55:32 GMT 55.694912 -4.566965 9,250 146 313 3072
2021-10-21 09:55:29 GMT 55.698681 -4.571428 9,425 146 314 3072
2021-10-21 09:55:26 GMT 55.702545 -4.575891 9,125 146 312 3072
2021-10-21 09:55:23 GMT 55.705803 -4.579754 8,300 147 308 3264
2021-10-21 09:55:20 GMT 55.713299 -4.588337 8,950 147 310 3136
2021-10-21 09:55:17 GMT 55.713299 -4.588337 8,775 147 309 3200
2021-10-21 09:55:14 GMT 55.718307 -4.593867 8,575 148 308 3456
2021-10-21 09:55:11 GMT 55.720139 -4.595864 8,450 148 307 3520
2021-10-21 09:55:09 GMT 55.722427 -4.598361 8,250 149 307 3584
2021-10-21 09:55:06 GMT 55.727360 -4.603529 8,100 151 306 3456
2021-10-21 09:55:03 GMT 55.730476 -4.606533 7,975 152 306 3392
2021-10-21 09:55:00 GMT 55.734833 -4.610346 7,775 158 304 3136
2021-10-21 09:54:56 GMT 55.739510 -4.613485 7,550 166 301 3008
2021-10-21 09:54:53 GMT 55.744209 -4.615459 7,425 172 298 2880
2021-10-21 09:54:50 GMT 55.747009 -4.616172 7,325 174 297 2816
2021-10-21 09:54:48 GMT 55.750992 -4.616505 7,200 183 292 2752
2021-10-21 09:54:45 GMT 55.758179 -4.615506 7,050 186 289 2560
2021-10-21 09:54:42 GMT 55.758179 -4.615506 6,375 195 280 2304
2021-10-21 09:54:39 GMT 55.762161 -4.614008 6,800 197 277 2240
2021-10-21 09:54:36 GMT 55.765320 -4.612344 6,700 202 271 2176
2021-10-21 09:54:33 GMT 55.769211 -4.609763 6,625 204 266 2176
2021-10-21 09:54:30 GMT 55.772186 -4.607391 6,575 207 262 2176
2021-10-21 09:54:27 GMT 55.776005 -4.603701 6,425 215 252 2304
2021-10-21 09:54:23 GMT 55.779831 -4.598944 6,250 219 246 2752
2021-10-21 09:54:20 GMT 55.782059 -4.595718 6,050 223 240 3456
2021-10-21 09:54:17 GMT 55.785141 -4.590704 5,900 224 238 3840
2021-10-21 09:54:14 GMT 55.786804 -4.587994 5,650 224 238 3776
2021-10-21 09:54:11 GMT 55.789719 -4.583130 5,550 223 237 3712
2021-10-21 09:54:09 GMT 55.791275 -4.580526 5,450 223 237 3712
2021-10-21 09:54:06 GMT 55.793324 -4.577265 5,125 223 235 3840
2021-10-21 09:54:03 GMT 55.796310 -4.572310 5,050 223 235 3968
2021-10-21 09:54:00 GMT 55.799049 -4.567738 4,800 223 236 4160
2021-10-21 09:53:56 GMT 55.801796 -4.563274 4,550 223 237 4032
2021-10-21 09:53:53 GMT 55.804184 -4.559409 4,375 223 237 3968
2021-10-21 09:53:50 GMT 55.805893 -4.556494 4,225 223 237 3840
2021-10-21 09:53:47 GMT 55.809010 -4.551344 4,000 224 237 3776
2021-10-21 09:53:44 GMT 55.811012 -4.547997 3,825 224 237 3776
2021-10-21 09:53:41 GMT 55.813751 -4.543429 3,600 224 236 3904
2021-10-21 09:53:38 GMT 55.817413 -4.537270 3,300 225 236 3584
2021-10-21 09:53:35 GMT 55.817760 -4.536667 3,200 225 236 3328
2021-10-21 09:53:31 GMT 55.821396 -4.530230 3,025 225 234 3008
2021-10-21 09:53:29 GMT 55.823769 -4.526024 2,875 226 232 2624
2021-10-21 09:53:26 GMT 55.825211 -4.523449 2,800 226 229 2176
2021-10-21 09:53:23 GMT 55.828354 -4.517795 2,650 227 223 1856
2021-10-21 09:53:20 GMT 55.829819 -4.515123 2,525 227 222 1792
2021-10-21 09:53:15 GMT 55.832794 -4.509388 2,475 228 211 1152
2021-10-21 09:53:12 GMT 55.835079 -4.504995 2,375 229 196 960
2021-10-21 09:53:09 GMT 55.837456 -4.500360 2,375 229 196 960
2021-10-21 09:53:06 GMT 55.839039 -4.497185 2,275 229 189 1472
2021-10-21 09:53:02 GMT 55.841038 -4.493065 2,200 230 183 1536
2021-10-21 09:52:59 GMT 55.842621 -4.489889 2,175 230 180 1600
2021-10-21 09:52:53 GMT 55.846161 -4.482508 2,000 230 172 1600
2021-10-21 09:52:49 GMT 55.847992 -4.478677 1,975 230 172 1664
2021-10-21 09:52:44 GMT 55.850510 -4.473600 1,750 230 161 1728
2021-10-21 09:52:40 GMT 55.852444 -4.469633 1,650 229 156 1920
2021-10-21 09:52:33 GMT 55.855957 -4.462696 1,425 228 148 1920
2021-10-21 09:52:30 GMT 55.857658 -4.459419 1,250 227 146 2752
2021-10-21 09:52:25 GMT 55.859482 -4.456121 1,050 227 148 2880
2021-10-21 09:52:21 GMT 55.861195 -4.452982 875 226 149 2944
2021-10-21 09:52:12 GMT 55.865936 -4.444386 400 226 154 2560
2021-10-21 09:51:35 GMT 55.878834 -4.420374 0 225 30
2021-10-21 09:51:31 GMT 55.879093 -4.419894 0 227 9
2021-10-21 09:51:17 GMT 55.879177 -4.419765 0 227 0
2021-10-21 09:50:46 GMT 55.879177 -4.419771 0 227 0
2021-10-21 09:50:36 GMT 55.879177 -4.419765 0 227 0
2021-10-21 09:50:27 GMT 55.879177 -4.419750 0 227 0
2021-10-21 09:50:20 GMT 55.879177 -4.419765 0 227 0
2021-10-21 09:49:59 GMT 55.879177 -4.419771 0 227 0
2021-10-21 09:49:50 GMT 55.879257 -4.419687 0 247 8
We lost coverage of the aircraft here for a total of 52 minutes
2021-10-21 08:58:13 GMT 55.878433 -4.421082 200 227 125 -640
2021-10-21 08:58:05 GMT 55.881271 -4.415755 275 227 126 -768
2021-10-21 08:57:45 GMT 55.889374 -4.400690 525 227 124 -704
2021-10-21 08:57:39 GMT 55.891846 -4.396029 600 227 122 -704
2021-10-21 08:57:36 GMT 55.893085 -4.393673 625 227 123 -704
2021-10-21 08:57:32 GMT 55.894436 -4.391270 675 227 122 -704
2021-10-21 08:57:23 GMT 55.898533 -4.383545 775 227 121 -640
2021-10-21 08:57:20 GMT 55.899277 -4.382086 800 226 122 -704
2021-10-21 08:57:15 GMT 55.901276 -4.378468 875 227 123 -640
2021-10-21 08:57:12 GMT 55.902256 -4.376593 900 227 122 -704
2021-10-21 08:57:09 GMT 55.903557 -4.374189 925 227 123 -704
2021-10-21 08:57:05 GMT 55.905048 -4.371271 975 227 123 -704
2021-10-21 08:57:02 GMT 55.906303 -4.368954 1,025 227 123 -640
2021-10-21 08:56:58 GMT 55.907959 -4.365817 1,150 227 123 -640
2021-10-21 08:56:55 GMT 55.909004 -4.363890 1,100 227 123 -576
2021-10-21 08:56:52 GMT 55.910263 -4.361572 1,125 227 124 -640
2021-10-21 08:56:49 GMT 55.911301 -4.359658 1,150 227 125 -640
2021-10-21 08:56:44 GMT 55.913132 -4.356246 1,200 227 126 -704
2021-10-21 08:56:39 GMT 55.915428 -4.351788 1,275 227 128 -704
2021-10-21 08:56:33 GMT 55.917568 -4.347754 1,325 227 130 -704
2021-10-21 08:56:30 GMT 55.919247 -4.344664 1,375 227 133 -704
2021-10-21 08:56:24 GMT 55.921463 -4.340432 1,425 227 138 -768
2021-10-21 08:56:20 GMT 55.924347 -4.335105 1,525 227 143 -896
2021-10-21 08:56:14 GMT 55.926224 -4.331526 1,575 227 148 -896
2021-10-21 08:56:09 GMT 55.928791 -4.326725 1,675 227 154 -768
2021-10-21 08:56:04 GMT 55.930977 -4.322605 1,725 227 160 -576
2021-10-21 08:55:58 GMT 55.934376 -4.316254 1,800 227 165 -960
2021-10-21 08:55:54 GMT 55.936378 -4.312391 1,875 227 168 -960
2021-10-21 08:55:51 GMT 55.937759 -4.309887 1,925 227 171 -960
2021-10-21 08:55:48 GMT 55.939636 -4.306297 1,950 227 172 -960
2021-10-21 08:55:44 GMT 55.941685 -4.302435 2,025 227 176 -1088
2021-10-21 08:55:41 GMT 55.944057 -4.297972 2,075 228 179 -1088
2021-10-21 08:55:38 GMT 55.945038 -4.296169 2,125 228 180 -1088
2021-10-21 08:55:35 GMT 55.946732 -4.292824 2,175 228 180 -1088
2021-10-21 08:55:32 GMT 55.948746 -4.288829 2,250 229 182 -1088
2021-10-21 08:55:29 GMT 55.950851 -4.284668 2,300 229 182 -1088
2021-10-21 08:55:26 GMT 55.952484 -4.281406 2,350 229 183 -1024
2021-10-21 08:55:23 GMT 55.953323 -4.279690 2,375 229 182 -1024
2021-10-21 08:55:20 GMT 55.955246 -4.275762 2,475 230 183 -960
2021-10-21 08:55:17 GMT 55.956955 -4.272308 2,500 230 182 -960
2021-10-21 08:55:13 GMT 55.958862 -4.268355 2,550 232 182 -960
2021-10-21 08:55:08 GMT 55.961750 -4.260979 2,625 242 179 -832
2021-10-21 08:55:04 GMT 55.963120 -4.255538 2,675 256 174 -640
2021-10-21 08:54:59 GMT 55.963806 -4.250128 2,750 266 171 -576
2021-10-21 08:54:56 GMT 55.964077 -4.244671 2,750 267 172 -576
2021-10-21 08:54:53 GMT 55.964172 -4.241638 2,825 267 173 -704
2021-10-21 08:54:50 GMT 55.964310 -4.236395 2,825 267 173 -704
2021-10-21 08:54:47 GMT 55.964630 -4.226324 2,875 267 176 -832
2021-10-21 08:54:43 GMT 55.964630 -4.226324 2,900 267 176 -768
2021-10-21 08:54:40 GMT 55.964767 -4.221996 2,950 267 177 -896
2021-10-21 08:54:36 GMT 55.964912 -4.216089 3,125 268 178 -768
2021-10-21 08:54:33 GMT 55.965054 -4.211884 3,050 268 178 -832
2021-10-21 08:54:30 GMT 55.965195 -4.207077 3,100 268 178 -768
2021-10-21 08:54:27 GMT 55.965286 -4.203815 3,125 268 178 -704
2021-10-21 08:54:24 GMT 55.965382 -4.198666 3,175 269 177 -320
2021-10-21 08:54:21 GMT 55.965473 -4.192915 3,175 272 176 -128
2021-10-21 08:54:18 GMT 55.965427 -4.188967 3,175 273 175 -64
2021-10-21 08:54:15 GMT 55.965240 -4.184504 3,175 277 173 64
2021-10-21 08:54:12 GMT 55.965042 -4.182628 3,175 282 172 256
2021-10-21 08:54:09 GMT 55.964451 -4.178066 3,150 298 172 64
2021-10-21 08:54:06 GMT 55.963005 -4.172487 3,150 304 171 -64
2021-10-21 08:54:02 GMT 55.961929 -4.169561 3,150 309 172 -64
2021-10-21 08:53:59 GMT 55.959915 -4.165649 3,150 330 172 -192
2021-10-21 08:53:56 GMT 55.958073 -4.163046 3,175 330 172 -256
2021-10-21 08:53:53 GMT 55.955509 -4.160385 3,175 335 173 -256
2021-10-21 08:53:48 GMT 55.950298 -4.156265 3,200 337 173 -192
2021-10-21 08:53:45 GMT 55.950298 -4.156265 3,200 337 173 -192
2021-10-21 08:53:42 GMT 55.948387 -4.154806 3,225 337 173 -192
2021-10-21 08:53:39 GMT 55.945827 -4.152918 3,225 337 173 -192
2021-10-21 08:53:35 GMT 55.942711 -4.150515 3,250 337 173 -192
2021-10-21 08:53:32 GMT 55.940643 -4.149003 3,250 337 173 -192
2021-10-21 08:53:28 GMT 55.937218 -4.146395 3,250 337 173 -192
2021-10-21 08:53:25 GMT 55.934509 -4.144426 3,275 337 173 -192
2021-10-21 08:53:21 GMT 55.932934 -4.143219 3,275 338 174 -192
2021-10-21 08:53:18 GMT 55.930664 -4.141513 3,300 338 177 -448
2021-10-21 08:53:15 GMT 55.928101 -4.139515 3,325 337 178 -640
2021-10-21 08:53:12 GMT 55.925491 -4.137518 3,400 337 181 -640
2021-10-21 08:53:09 GMT 55.923157 -4.135752 3,375 337 181 -640
2021-10-21 08:53:06 GMT 55.920876 -4.134121 3,425 337 183 -640
2021-10-21 08:53:03 GMT 55.918873 -4.132576 3,450 337 187 -640
2021-10-21 08:53:00 GMT 55.916473 -4.130776 3,475 337 185 -640
2021-10-21 08:52:57 GMT 55.913754 -4.128628 3,525 337 192 -640
2021-10-21 08:52:53 GMT 55.907410 -4.123785 3,575 337 190 -704
2021-10-21 08:52:49 GMT 55.907410 -4.123785 3,600 337 193 -512
2021-10-21 08:52:48 GMT 55.906631 -4.123202 3,625 337 193 -512
2021-10-21 08:52:47 GMT 55.905746 -4.122534 3,625 337 193 -384
2021-10-21 08:52:45 GMT 55.904022 -4.121246 3,650 337 203 0
2021-10-21 08:52:42 GMT 55.901413 -4.119207 3,650 337 203 0
2021-10-21 08:52:40 GMT 55.900208 -4.118242 3,650 337 203 0
2021-10-21 08:52:37 GMT 55.897614 -4.116294 3,650 337 203 0
2021-10-21 08:52:33 GMT 55.891502 -4.111547 3,650 337 209 0
2021-10-21 08:52:30 GMT 55.891502 -4.111547 3,650 337 209 0
2021-10-21 08:52:29 GMT 55.889648 -4.110135 3,650 337 213 0
2021-10-21 08:52:27 GMT 55.888706 -4.109402 3,650 337 214 0
2021-10-21 08:52:26 GMT 55.887863 -4.108720 3,650 337 214 0
2021-10-21 08:52:24 GMT 55.886124 -4.107389 3,650 337 215 -64
2021-10-21 08:52:22 GMT 55.884426 -4.106054 3,650 337 218 -64
2021-10-21 08:52:21 GMT 55.883560 -4.105391 3,650 337 220 -64
2021-10-21 08:52:20 GMT 55.882553 -4.104559 3,650 337 220 -64
2021-10-21 08:52:19 GMT 55.881546 -4.103726 3,650 337 220 -64
2021-10-21 08:52:17 GMT 55.879585 -4.102278 3,650 337 223 -128
2021-10-21 08:52:16 GMT 55.878654 -4.101505 3,650 337 225 -128
2021-10-21 08:52:15 GMT 55.877815 -4.100819 3,650 337 226 -192
2021-10-21 08:52:14 GMT 55.876743 -4.100046 3,650 337 227 -192
2021-10-21 08:52:13 GMT 55.875813 -4.099274 3,650 337 228 -192
2021-10-21 08:52:12 GMT 55.873859 -4.097729 3,675 337 229 -256
2021-10-21 08:52:10 GMT 55.872787 -4.096956 3,675 337 231 -256
2021-10-21 08:52:09 GMT 55.871750 -4.096153 3,675 337 231 -256
2021-10-21 08:52:08 GMT 55.869762 -4.094553 3,675 337 232 -256
2021-10-21 08:52:05 GMT 55.868729 -4.093739 3,675 337 233 -384
2021-10-21 08:52:03 GMT 55.867016 -4.092407 3,700 337 233 -384
2021-10-21 08:52:02 GMT 55.865982 -4.091575 3,700 337 233 -448
2021-10-21 08:52:00 GMT 55.863056 -4.089317 3,725 337 235 -640
2021-10-21 08:51:57 GMT 55.860443 -4.087247 3,750 336 235 -832
2021-10-21 08:51:54 GMT 55.857925 -4.085249 3,800 336 236 -1088
2021-10-21 08:51:52 GMT 55.851189 -4.079876 3,875 336 237 -1344
2021-10-21 08:51:49 GMT 55.851189 -4.079876 3,925 336 238 -1472
2021-10-21 08:51:46 GMT 55.848999 -4.078159 4,000 336 238 -1472
2021-10-21 08:51:43 GMT 55.844997 -4.074898 4,075 336 238 -1600
2021-10-21 08:51:40 GMT 55.843140 -4.073431 4,150 336 238 -1792
2021-10-21 08:51:37 GMT 55.840294 -4.071121 4,300 336 237 -1792
2021-10-21 08:51:34 GMT 55.838291 -4.069490 4,300 336 237 -1792
2021-10-21 08:51:33 GMT 55.837269 -4.068718 4,325 336 237 -1792
2021-10-21 08:51:31 GMT 55.835266 -4.067087 4,375 336 236 -1792
2021-10-21 08:51:30 GMT 55.834290 -4.066315 4,400 336 236 -1792
2021-10-21 08:51:29 GMT 55.833172 -4.065456 4,450 336 236 -1792
2021-10-21 08:51:28 GMT 55.831604 -4.064192 4,475 336 236 -1728
2021-10-21 08:51:26 GMT 55.829041 -4.062112 4,600 336 236 -1664
2021-10-21 08:51:23 GMT 55.826374 -4.060049 4,675 336 236 -1600
2021-10-21 08:51:20 GMT 55.822742 -4.057045 4,825 336 235 -1536
2021-10-21 08:51:17 GMT 55.819702 -4.054621 4,825 336 235 -1472
2021-10-21 08:51:13 GMT 55.813946 -4.049921 5,000 336 233 -1408
2021-10-21 08:51:10 GMT 55.810127 -4.046745 5,000 336 233 -1344
2021-10-21 08:51:07 GMT 55.810127 -4.046745 5,075 336 231 -1152
2021-10-21 08:51:04 GMT 55.806793 -4.043968 5,125 336 230 -832
2021-10-21 08:51:01 GMT 55.803844 -4.041595 5,175 335 229 -192
2021-10-21 08:50:58 GMT 55.801987 -4.040056 5,175 335 229 -192
2021-10-21 08:50:55 GMT 55.799049 -4.037647 5,175 336 226 192
2021-10-21 08:50:54 GMT 55.798119 -4.036875 5,175 336 226 192
2021-10-21 08:50:53 GMT 55.796127 -4.035228 5,175 336 226 128
2021-10-21 08:50:51 GMT 55.795231 -4.034472 5,175 336 225 64
2021-10-21 08:50:50 GMT 55.794209 -4.033613 5,175 336 225 128
2021-10-21 08:50:49 GMT 55.793324 -4.032927 5,175 336 224 128
2021-10-21 08:50:47 GMT 55.791367 -4.031296 5,175 336 226 64
2021-10-21 08:50:44 GMT 55.787704 -4.028404 5,150 336 230 0
2021-10-21 08:50:42 GMT 55.786758 -4.027691 5,150 336 231 0
2021-10-21 08:50:40 GMT 55.784866 -4.026156 5,150 336 234 -64
2021-10-21 08:50:39 GMT 55.781799 -4.023743 5,150 336 237 -128
2021-10-21 08:50:37 GMT 55.781799 -4.023743 5,150 336 239 -128
2021-10-21 08:50:34 GMT 55.778706 -4.021254 5,175 337 243 -128
2021-10-21 08:50:33 GMT 55.777542 -4.020330 5,175 337 246 -64
2021-10-21 08:50:32 GMT 55.776489 -4.019498 5,175 337 248 -64
2021-10-21 08:50:31 GMT 55.774654 -4.018078 5,175 337 251 -64
2021-10-21 08:50:28 GMT 55.772839 -4.016619 5,175 337 256 -64
2021-10-21 08:50:25 GMT 55.768509 -4.013271 5,175 337 261 -64
2021-10-21 08:50:23 GMT 55.767441 -4.012413 5,175 337 262 -64
2021-10-21 08:50:22 GMT 55.766182 -4.011469 5,175 337 264 -64
2021-10-21 08:50:21 GMT 55.765137 -4.010592 5,175 337 268 -128
2021-10-21 08:50:19 GMT 55.762833 -4.008808 5,175 337 270 -128
2021-10-21 08:50:18 GMT 55.761528 -4.007778 5,175 337 274 -192
2021-10-21 08:50:16 GMT 55.758270 -4.005289 5,175 337 279 -256
2021-10-21 08:50:13 GMT 55.754963 -4.002714 5,200 337 289 -576
2021-10-21 08:50:10 GMT 55.752228 -4.000605 5,200 337 289 -576
2021-10-21 08:50:06 GMT 55.746723 -3.996277 5,300 337 299 -960
2021-10-21 08:50:03 GMT 55.743557 -3.993874 5,300 337 303 -1152
2021-10-21 08:50:02 GMT 55.742203 -3.992781 5,300 337 304 -1280
2021-10-21 08:50:01 GMT 55.740719 -3.991642 5,325 337 306 -1344
2021-10-21 08:49:59 GMT 55.738037 -3.989618 5,375 337 308 -1472
2021-10-21 08:49:58 GMT 55.736755 -3.988536 5,400 337 310 -1600
2021-10-21 08:49:57 GMT 55.735367 -3.987522 5,425 337 312 -1728
2021-10-21 08:49:54 GMT 55.729687 -3.983145 5,550 337 313 -1984
2021-10-21 08:49:51 GMT 55.726273 -3.980463 5,625 337 315 -2304
2021-10-21 08:49:49 GMT 55.724945 -3.979464 5,700 337 315 -2368
2021-10-21 08:49:46 GMT 55.719452 -3.975303 5,850 337 316 -2688
2021-10-21 08:49:42 GMT 55.714188 -3.971225 6,025 337 317 -3136
2021-10-21 08:49:39 GMT 55.704685 -3.964090 6,450 337 316 -3520
2021-10-21 08:49:35 GMT 55.704685 -3.964090 6,425 338 312 -3840
2021-10-21 08:49:32 GMT 55.700363 -3.960821 6,725 338 312 -3840
2021-10-21 08:49:29 GMT 55.697098 -3.958340 6,925 338 308 -4160
2021-10-21 08:49:26 GMT 55.693748 -3.955851 7,050 338 308 -4160
2021-10-21 08:49:23 GMT 55.689140 -3.952503 7,150 338 307 -4160
2021-10-21 08:49:20 GMT 55.686356 -3.950417 7,550 338 307 -3456
2021-10-21 08:49:17 GMT 55.682281 -3.947421 7,550 338 307 -3456
2021-10-21 08:49:15 GMT 55.678802 -3.944778 7,850 338 311 -1984
2021-10-21 08:49:12 GMT 55.675323 -3.942178 7,850 338 311 -1984
2021-10-21 08:49:09 GMT 55.671341 -3.939264 7,900 338 315 -1152
2021-10-21 08:49:06 GMT 55.666981 -3.936024 7,975 338 318 -448
2021-10-21 08:49:03 GMT 55.663513 -3.933438 7,975 337 318 -320
2021-10-21 08:49:00 GMT 55.658798 -3.929776 8,000 337 320 -128
2021-10-21 08:48:59 GMT 55.657425 -3.928778 8,000 337 320 -64
2021-10-21 08:48:58 GMT 55.655994 -3.927698 8,000 337 320 0
2021-10-21 08:48:56 GMT 55.653385 -3.925724 8,000 337 320 -64
2021-10-21 08:48:55 GMT 55.651978 -3.924699 8,000 337 320 -64
2021-10-21 08:48:54 GMT 55.650467 -3.923534 8,000 337 321 0
2021-10-21 08:48:51 GMT 55.646450 -3.920488 8,000 337 321 128
2021-10-21 08:48:48 GMT 55.642494 -3.917484 8,000 337 321 128
2021-10-21 08:48:47 GMT 55.640957 -3.916368 8,000 338 322 0
2021-10-21 08:48:45 GMT 55.638210 -3.914309 8,000 338 322 0
2021-10-21 08:48:44 GMT 55.635509 -3.912249 8,000 338 322 -64
2021-10-21 08:48:42 GMT 55.634033 -3.911216 8,000 338 322 -128
2021-10-21 08:48:41 GMT 55.632797 -3.910301 8,000 338 322 -128
2021-10-21 08:48:39 GMT 55.625977 -3.905140 8,000 338 321 -320
2021-10-21 08:48:36 GMT 55.625977 -3.905140 8,025 338 321 -320
2021-10-21 08:48:33 GMT 55.621918 -3.902206 8,050 338 321 -448
2021-10-21 08:48:30 GMT 55.617821 -3.899202 8,050 338 320 -576
2021-10-21 08:48:27 GMT 55.613537 -3.896112 8,075 338 320 -768
2021-10-21 08:48:25 GMT 55.610641 -3.893904 8,125 338 318 -960
2021-10-21 08:48:24 GMT 55.609348 -3.893023 8,125 338 318 -960
2021-10-21 08:48:23 GMT 55.606934 -3.891241 8,150 338 318 -1088
2021-10-21 08:48:20 GMT 55.604553 -3.889503 8,175 338 318 -1088
2021-10-21 08:48:18 GMT 55.596313 -3.883584 8,275 338 319 -1280
2021-10-21 08:48:14 GMT 55.596313 -3.883584 8,325 338 320 -1664
2021-10-21 08:48:11 GMT 55.592880 -3.881087 8,400 338 321 -1856
2021-10-21 08:48:08 GMT 55.588680 -3.878088 8,500 339 323 -2112
2021-10-21 08:48:04 GMT 55.577694 -3.870277 8,675 338 327 -2560
2021-10-21 08:48:01 GMT 55.577694 -3.870277 9,000 338 327 -2560
2021-10-21 08:47:58 GMT 55.574200 -3.867788 8,875 338 327 -2432
2021-10-21 08:47:55 GMT 55.570011 -3.864698 9,050 338 329 -2688
2021-10-21 08:47:52 GMT 55.561867 -3.858776 9,150 338 329 -2688
2021-10-21 08:47:49 GMT 55.561867 -3.858776 9,325 337 329 -2880
2021-10-21 08:47:45 GMT 55.554604 -3.853283 9,575 337 330 -2752
2021-10-21 08:47:42 GMT 55.548595 -3.848648 9,625 337 330 -2752
2021-10-21 08:47:40 GMT 55.548595 -3.848648 9,850 337 331 -2688
2021-10-21 08:47:36 GMT 55.542591 -3.843927 9,850 337 333 -2560
2021-10-21 08:47:34 GMT 55.539825 -3.841802 9,950 337 333 -2560
2021-10-21 08:47:32 GMT 55.537033 -3.839638 10,025 337 333 -2624
2021-10-21 08:47:31 GMT 55.535751 -3.838640 10,075 337 334 -2688
2021-10-21 08:47:30 GMT 55.534195 -3.837474 10,100 337 334 -2688
2021-10-21 08:47:28 GMT 55.531219 -3.835144 10,200 337 334 -2752
2021-10-21 08:47:25 GMT 55.528427 -3.832897 10,300 337 334 -2816
2021-10-21 08:47:24 GMT 55.527088 -3.831911 10,350 337 334 -2816
2021-10-21 08:47:23 GMT 55.522476 -3.828236 10,500 336 336 -2880
2021-10-21 08:47:21 GMT 55.522476 -3.828236 10,500 336 336 -2880
2021-10-21 08:47:20 GMT 55.521057 -3.827154 10,550 336 336 -2944
2021-10-21 08:47:18 GMT 55.517452 -3.824272 10,775 336 336 -3008
2021-10-21 08:47:15 GMT 55.513355 -3.821011 10,775 336 336 -3200
2021-10-21 08:47:12 GMT 55.509430 -3.817915 11,275 336 336 -3200
2021-10-21 08:47:09 GMT 55.505165 -3.814487 11,275 336 336 -3200
2021-10-21 08:47:07 GMT 55.501419 -3.811424 11,275 336 336 -3136
2021-10-21 08:47:04 GMT 55.497620 -3.808344 11,400 335 335 -3008
2021-10-21 08:47:02 GMT 55.494736 -3.805990 11,525 335 336 -2880
2021-10-21 08:47:00 GMT 55.491852 -3.803517 11,550 335 336 -2816
2021-10-21 08:46:58 GMT 55.488823 -3.800926 11,700 334 337 -2880
2021-10-21 08:46:57 GMT 55.488125 -3.800325 11,725 334 337 -2944
2021-10-21 08:46:55 GMT 55.485260 -3.797857 11,800 334 337 -2944
2021-10-21 08:46:53 GMT 55.482468 -3.795443 11,925 334 337 -2944
2021-10-21 08:46:52 GMT 55.481701 -3.794832 11,950 335 338 -2880
2021-10-21 08:46:51 GMT 55.480362 -3.793696 11,975 335 337 -2880
2021-10-21 08:46:49 GMT 55.476974 -3.790783 12,125 335 338 -2816
2021-10-21 08:46:47 GMT 55.473927 -3.788309 12,225 336 339 -2752
2021-10-21 08:46:45 GMT 55.471088 -3.785992 12,300 336 339 -2752
2021-10-21 08:46:43 GMT 55.468185 -3.783625 12,400 337 340 -2688
2021-10-21 08:46:41 GMT 55.466171 -3.782043 12,475 337 340 -2624
2021-10-21 08:46:40 GMT 55.464802 -3.781013 12,500 337 341 -2624
2021-10-21 08:46:39 GMT 55.462616 -3.779383 12,575 338 341 -2432
2021-10-21 08:46:37 GMT 55.459671 -3.777133 12,650 338 342 -2496
2021-10-21 08:46:35 GMT 55.456657 -3.775005 12,725 339 342 -2752
2021-10-21 08:46:33 GMT 55.453724 -3.772945 12,825 339 343 -2816
2021-10-21 08:46:32 GMT 55.452301 -3.771973 12,875 339 342 -2944
2021-10-21 08:46:30 GMT 55.449188 -3.769892 12,975 339 342 -3136
2021-10-21 08:46:29 GMT 55.446323 -3.767967 13,075 339 342 -3264
2021-10-21 08:46:26 GMT 55.444153 -3.766479 13,175 339 342 -3264
2021-10-21 08:46:25 GMT 55.442093 -3.765079 13,225 339 342 -3200
2021-10-21 08:46:24 GMT 55.439896 -3.763625 13,325 339 342 -3072
2021-10-21 08:46:23 GMT 55.438431 -3.762575 13,375 339 342 -3008
2021-10-21 08:46:22 GMT 55.436871 -3.761569 13,425 339 342 -2880
2021-10-21 08:46:21 GMT 55.434586 -3.759990 13,500 340 343 -2688
2021-10-21 08:46:19 GMT 55.433006 -3.758989 13,525 340 343 -2368
2021-10-21 08:46:18 GMT 55.431473 -3.757890 13,575 340 343 -2368
2021-10-21 08:46:17 GMT 55.429962 -3.756920 13,625 340 343 -2240
2021-10-21 08:46:15 GMT 55.426910 -3.754827 13,700 339 345 -1984
2021-10-21 08:46:13 GMT 55.423737 -3.752720 13,750 339 345 -1664
2021-10-21 08:46:11 GMT 55.420395 -3.750416 13,825 340 346 -1408
2021-10-21 08:46:10 GMT 55.419571 -3.749892 13,825 340 346 -1344
2021-10-21 08:46:09 GMT 55.417923 -3.748761 13,850 340 347 -1280
2021-10-21 08:46:08 GMT 55.416481 -3.747836 13,875 340 347 -1280
2021-10-21 08:46:07 GMT 55.414993 -3.746837 13,900 340 347 -1344
2021-10-21 08:46:05 GMT 55.411827 -3.744673 13,950 340 348 -1600
2021-10-21 08:46:04 GMT 55.410336 -3.743675 13,975 340 348 -1856
2021-10-21 08:46:03 GMT 55.408848 -3.742676 14,025 340 348 -1920
2021-10-21 08:46:02 GMT 55.407173 -3.741594 14,050 340 347 -1984
2021-10-21 08:46:00 GMT 55.404331 -3.739680 14,125 340 347 -1984
2021-10-21 08:45:59 GMT 55.402908 -3.738664 14,150 340 347 -1984
2021-10-21 08:45:57 GMT 55.399429 -3.736402 14,225 340 347 -1920
2021-10-21 08:45:54 GMT 55.395401 -3.733655 14,325 340 346 -1984
2021-10-21 08:45:52 GMT 55.392323 -3.731606 14,375 340 346 -1984
2021-10-21 08:45:51 GMT 55.388672 -3.729131 14,475 340 345 -2048
2021-10-21 08:45:49 GMT 55.387852 -3.728610 14,475 340 345 -2048
2021-10-21 08:45:48 GMT 55.385616 -3.727112 14,525 340 345 -2112
2021-10-21 08:45:47 GMT 55.384186 -3.726142 14,575 340 345 -2176
2021-10-21 08:45:46 GMT 55.383385 -3.725614 14,575 340 345 -2176
2021-10-21 08:45:44 GMT 55.380219 -3.723533 14,650 340 346 -2304
2021-10-21 08:45:43 GMT 55.378647 -3.722507 14,700 340 346 -2368
2021-10-21 08:45:42 GMT 55.377182 -3.721457 14,750 340 346 -2432
2021-10-21 08:45:41 GMT 55.375610 -3.720453 14,775 340 346 -2560
2021-10-21 08:45:39 GMT 55.372910 -3.718622 14,875 340 346 -2688
2021-10-21 08:45:38 GMT 55.371323 -3.717580 14,900 340 346 -2752
2021-10-21 08:45:37 GMT 55.369858 -3.716610 14,950 340 347 -2880
2021-10-21 08:45:35 GMT 55.366905 -3.714711 15,050 340 347 -3008
2021-10-21 08:45:33 GMT 55.363785 -3.712630 15,150 340 346 -3200
2021-10-21 08:45:32 GMT 55.362110 -3.711465 15,225 340 346 -3328
2021-10-21 08:45:30 GMT 55.360619 -3.710466 15,275 340 346 -3264
2021-10-21 08:45:28 GMT 55.355621 -3.707159 15,425 340 346 -2944
2021-10-21 08:45:25 GMT 55.352707 -3.705222 15,600 340 347 -2752
2021-10-21 08:45:24 GMT 55.351273 -3.704251 15,625 340 347 -2752
2021-10-21 08:45:21 GMT 55.346699 -3.701227 15,725 340 348 -2688
2021-10-21 08:45:19 GMT 55.340508 -3.697149 15,900 340 349 -2816
2021-10-21 08:45:17 GMT 55.340508 -3.697149 15,925 340 349 -2880
2021-10-21 08:45:16 GMT 55.339096 -3.696172 15,975 340 349 -2944
2021-10-21 08:45:14 GMT 55.336349 -3.694395 16,050 340 349 -2944
2021-10-21 08:45:11 GMT 55.332001 -3.691487 16,200 340 350 -3008
2021-10-21 08:45:10 GMT 55.326637 -3.687911 16,450 340 350 -3008
2021-10-21 08:45:08 GMT 55.326637 -3.687911 16,450 340 351 -3136
2021-10-21 08:45:06 GMT 55.323608 -3.685913 16,475 340 351 -3136
2021-10-21 08:45:05 GMT 55.321934 -3.684831 16,600 340 351 -3200
2021-10-21 08:45:03 GMT 55.318817 -3.682763 16,650 340 351 -3200
2021-10-21 08:45:01 GMT 55.315613 -3.680581 16,750 340 351 -3200
2021-10-21 08:45:00 GMT 55.314022 -3.679588 16,825 340 351 -3200
2021-10-21 08:44:58 GMT 55.310715 -3.677340 16,925 340 351 -3264
2021-10-21 08:44:56 GMT 55.308247 -3.675676 17,100 340 351 -3264
2021-10-21 08:44:54 GMT 55.305176 -3.673634 17,150 340 352 -3264
2021-10-21 08:44:52 GMT 55.300522 -3.670516 17,300 340 352 -3264
2021-10-21 08:44:49 GMT 55.298100 -3.668934 17,375 340 352 -3328
2021-10-21 08:44:48 GMT 55.296341 -3.667737 17,450 340 352 -3328
2021-10-21 08:44:47 GMT 55.294098 -3.666271 17,525 340 352 -3392
2021-10-21 08:44:45 GMT 55.291069 -3.664273 17,625 340 352 -3392
2021-10-21 08:44:42 GMT 55.287254 -3.661693 17,775 340 352 -3392
2021-10-21 08:44:41 GMT 55.285110 -3.660278 17,850 340 352 -3392
2021-10-21 08:44:40 GMT 55.283661 -3.659336 17,950 340 352 -3392
2021-10-21 08:44:39 GMT 55.280319 -3.657155 18,050 340 352 -3392
2021-10-21 08:44:37 GMT 55.278809 -3.656105 18,075 340 352 -3392
2021-10-21 08:44:36 GMT 55.277435 -3.655216 18,125 340 352 -3392
2021-10-21 08:44:35 GMT 55.275742 -3.654085 18,200 340 352 -3328
2021-10-21 08:44:33 GMT 55.273636 -3.652631 18,300 340 352 -3328
2021-10-21 08:44:32 GMT 55.272079 -3.651662 18,325 340 352 -3264
2021-10-21 08:44:31 GMT 55.270569 -3.650611 18,450 340 352 -3264
2021-10-21 08:44:30 GMT 55.267467 -3.648543 18,550 340 352 -3200
2021-10-21 08:44:28 GMT 55.265930 -3.647544 18,575 340 352 -3136
2021-10-21 08:44:27 GMT 55.264343 -3.646492 18,650 340 352 -3072
2021-10-21 08:44:25 GMT 55.261185 -3.644465 18,675 340 353 -3008
2021-10-21 08:44:23 GMT 55.258297 -3.642467 18,800 340 353 -2816
2021-10-21 08:44:22 GMT 55.256622 -3.641385 18,850 340 353 -2816
2021-10-21 08:44:21 GMT 55.255226 -3.640470 18,925 340 353 -2688
2021-10-21 08:44:18 GMT 55.249969 -3.636959 19,050 340 356 -2560
2021-10-21 08:44:16 GMT 55.247681 -3.635505 19,125 340 356 -2560
2021-10-21 08:44:15 GMT 55.245590 -3.634061 19,175 340 356 -2496
2021-10-21 08:44:13 GMT 55.243122 -3.632480 19,250 340 356 -2496
2021-10-21 08:44:12 GMT 55.241501 -3.631385 19,275 340 357 -2496
2021-10-21 08:44:11 GMT 55.239910 -3.630316 19,325 340 358 -2496
2021-10-21 08:44:09 GMT 55.236790 -3.628235 19,425 340 358 -2496
2021-10-21 08:44:08 GMT 55.235001 -3.627104 19,475 340 359 -2496
2021-10-21 08:44:07 GMT 55.233490 -3.626054 19,500 340 359 -2496
2021-10-21 08:44:06 GMT 55.232136 -3.625155 19,550 340 359 -2496
2021-10-21 08:44:05 GMT 55.228737 -3.622908 19,625 340 360 -2560
2021-10-21 08:44:03 GMT 55.227482 -3.622076 19,700 340 361 -2624
2021-10-21 08:44:02 GMT 55.225945 -3.620994 19,725 340 361 -2624
2021-10-21 08:44:01 GMT 55.224152 -3.619834 19,775 339 362 -2624
2021-10-21 08:44:00 GMT 55.222637 -3.618830 19,825 340 363 -2624
2021-10-21 08:43:58 GMT 55.219437 -3.616683 19,925 340 364 -2688
2021-10-21 08:43:57 GMT 55.217743 -3.615552 19,950 340 364 -2688
2021-10-21 08:43:56 GMT 55.214722 -3.613533 20,025 340 364 -2688
2021-10-21 08:43:54 GMT 55.213097 -3.612421 20,100 340 366 -2816
2021-10-21 08:43:53 GMT 55.211372 -3.611256 20,125 340 366 -2816
2021-10-21 08:43:52 GMT 55.209930 -3.610340 20,150 340 366 -2880
2021-10-21 08:43:51 GMT 55.208534 -3.609342 20,200 339 367 -2944
2021-10-21 08:43:48 GMT 55.203274 -3.605846 20,350 340 368 -2944
2021-10-21 08:43:47 GMT 55.200573 -3.604015 20,450 339 368 -2880
2021-10-21 08:43:45 GMT 55.198288 -3.602465 20,500 339 369 -2816
2021-10-21 08:43:44 GMT 55.197407 -3.601851 20,525 339 370 -2752
2021-10-21 08:43:43 GMT 55.195724 -3.600769 20,575 339 371 -2816
2021-10-21 08:43:40 GMT 55.190704 -3.597357 20,725 339 372 -2880
2021-10-21 08:43:39 GMT 55.189262 -3.596358 20,750 339 372 -2880
2021-10-21 08:43:37 GMT 55.185974 -3.594145 20,875 339 373 -3136
2021-10-21 08:43:36 GMT 55.184280 -3.592945 20,925 339 373 -3264
2021-10-21 08:43:35 GMT 55.182587 -3.591802 20,975 339 373 -3392
2021-10-21 08:43:33 GMT 55.179298 -3.589616 21,100 339 373 -3648
2021-10-21 08:43:31 GMT 55.176361 -3.587521 21,200 339 373 -3904
2021-10-21 08:43:30 GMT 55.174759 -3.586471 21,275 339 373 -3968
2021-10-21 08:43:29 GMT 55.173157 -3.585340 21,350 339 373 -4032
2021-10-21 08:43:28 GMT 55.170090 -3.583239 21,475 339 373 -4096
2021-10-21 08:43:26 GMT 55.168488 -3.582108 21,525 339 372 -4096
2021-10-21 08:43:24 GMT 55.165924 -3.580331 21,650 339 372 -4096
2021-10-21 08:43:23 GMT 55.161621 -3.577342 21,825 339 371 -4096
2021-10-21 08:43:21 GMT 55.160202 -3.576292 21,900 339 371 -4032
2021-10-21 08:43:20 GMT 55.158600 -3.575161 21,950 339 371 -4032
2021-10-21 08:43:19 GMT 55.157181 -3.574192 22,025 339 371 -3968
2021-10-21 08:43:16 GMT 55.151779 -3.570395 22,225 338 372 -3456
2021-10-21 08:43:15 GMT 55.150249 -3.569308 22,275 338 372 -3456
2021-10-21 08:43:13 GMT 55.147797 -3.567568 22,375 338 372 -3392
2021-10-21 08:43:12 GMT 55.145966 -3.566229 22,450 338 372 -3328
2021-10-21 08:43:11 GMT 55.144455 -3.565144 22,500 338 372 -3264
2021-10-21 08:43:10 GMT 55.141171 -3.562900 22,600 338 373 -3200
2021-10-21 08:43:08 GMT 55.139729 -3.561818 22,650 338 373 -3136
2021-10-21 08:43:06 GMT 55.135914 -3.559154 22,775 338 373 -3136
2021-10-21 08:43:05 GMT 55.134567 -3.558197 22,825 338 373 -3072
2021-10-21 08:43:04 GMT 55.132965 -3.557066 22,875 338 373 -3008
2021-10-21 08:43:03 GMT 55.131443 -3.555991 22,925 339 374 -2944
2021-10-21 08:43:01 GMT 55.128090 -3.553661 23,025 339 374 -2688
2021-10-21 08:43:00 GMT 55.126556 -3.552542 23,075 339 374 -2624
2021-10-21 08:42:59 GMT 55.124954 -3.551411 23,100 339 375 -2368
2021-10-21 08:42:58 GMT 55.123249 -3.550249 23,150 339 375 -2304
2021-10-21 08:42:57 GMT 55.121567 -3.549069 23,175 339 374 -2176
2021-10-21 08:42:55 GMT 55.118271 -3.546753 23,250 339 375 -1856
2021-10-21 08:42:53 GMT 55.112228 -3.542606 23,300 339 377 -1472
2021-10-21 08:42:51 GMT 55.112228 -3.542606 23,350 339 377 -1216
2021-10-21 08:42:50 GMT 55.110580 -3.541475 23,375 339 378 -1088
2021-10-21 08:42:48 GMT 55.107834 -3.539617 23,375 339 378 -1024
2021-10-21 08:42:47 GMT 55.106186 -3.538486 23,400 340 380 -768
2021-10-21 08:42:46 GMT 55.104488 -3.537348 23,425 340 380 -768
2021-10-21 08:42:45 GMT 55.102814 -3.536349 23,425 340 380 -768
2021-10-21 08:42:43 GMT 55.099457 -3.534124 23,475 341 380 -832
2021-10-21 08:42:42 GMT 55.097691 -3.533020 23,475 341 381 -896
2021-10-21 08:42:41 GMT 55.095879 -3.531855 23,500 341 381 -960
2021-10-21 08:42:39 GMT 55.093082 -3.530190 23,550 342 381 -1024
2021-10-21 08:42:37 GMT 55.089081 -3.527860 23,575 343 381 -1088
2021-10-21 08:42:36 GMT 55.085770 -3.526046 23,600 344 381 -1088
2021-10-21 08:42:34 GMT 55.084122 -3.525157 23,625 345 381 -1088
2021-10-21 08:42:33 GMT 55.082382 -3.524349 23,650 346 381 -1088
2021-10-21 08:42:32 GMT 55.080872 -3.523703 23,650 347 381 -1088
2021-10-21 08:42:31 GMT 55.079071 -3.522949 23,675 348 380 -1152
2021-10-21 08:42:30 GMT 55.077255 -3.522249 23,700 349 380 -1152
2021-10-21 08:42:29 GMT 55.073719 -3.521035 23,725 351 381 -1152
2021-10-21 08:42:26 GMT 55.070343 -3.520149 23,775 353 381 -1152
2021-10-21 08:42:24 GMT 55.063339 -3.518856 23,850 356 381 -1216
2021-10-21 08:42:22 GMT 55.063339 -3.518856 23,850 358 381 -1216
2021-10-21 08:42:20 GMT 55.059860 -3.518614 23,900 359 381 -1216
2021-10-21 08:42:19 GMT 55.057983 -3.518538 23,925 0 381 -1280
2021-10-21 08:42:18 GMT 55.054413 -3.518533 23,975 1 380 -1216
2021-10-21 08:42:16 GMT 55.052811 -3.518614 23,975 2 380 -1216
2021-10-21 08:42:14 GMT 55.049149 -3.519018 24,025 5 379 -1088
2021-10-21 08:42:13 GMT 55.045990 -3.519503 24,050 5 379 -1088
2021-10-21 08:42:11 GMT 55.044155 -3.519870 24,075 7 378 -960
2021-10-21 08:42:10 GMT 55.042435 -3.520286 24,100 8 377 -960
2021-10-21 08:42:09 GMT 55.040817 -3.520714 24,125 11 375 -896
2021-10-21 08:42:08 GMT 55.038990 -3.521285 24,125 14 374 -896
2021-10-21 08:42:06 GMT 55.035778 -3.522450 24,175 14 374 -896
2021-10-21 08:42:05 GMT 55.033997 -3.523138 24,175 16 372 -896
2021-10-21 08:42:03 GMT 55.030518 -3.524753 24,225 16 372 -896
2021-10-21 08:42:01 GMT 55.027222 -3.526531 24,225 18 371 -960
2021-10-21 08:42:00 GMT 55.025349 -3.527610 24,275 19 371 -1024
2021-10-21 08:41:58 GMT 55.022369 -3.529600 24,275 22 372 -1024
2021-10-21 08:41:56 GMT 55.019577 -3.531522 24,300 23 372 -1024
2021-10-21 08:41:54 GMT 55.016098 -3.534366 24,350 26 372 -1152
2021-10-21 08:41:53 GMT 55.014317 -3.535933 24,375 27 372 -1152
2021-10-21 08:41:51 GMT 55.012115 -3.538002 24,400 30 372 -1216
2021-10-21 08:41:50 GMT 55.009804 -3.540261 24,425 30 372 -1280
2021-10-21 08:41:48 GMT 55.006989 -3.543414 24,475 33 373 -1536
2021-10-21 08:41:46 GMT 55.004700 -3.546080 24,525 34 372 -1600
2021-10-21 08:41:45 GMT 55.000629 -3.551414 24,600 38 375 -1856
2021-10-21 08:41:43 GMT 55.000629 -3.551414 24,625 39 375 -1984
2021-10-21 08:41:42 GMT 54.999344 -3.553189 24,625 40 376 -2112
2021-10-21 08:41:39 GMT 54.995682 -3.558762 24,750 43 376 -2176
2021-10-21 08:41:38 GMT 54.994308 -3.561105 24,775 44 376 -2048
2021-10-21 08:41:37 GMT 54.992390 -3.564398 24,825 46 376 -1792
2021-10-21 08:41:34 GMT 54.988815 -3.571203 24,925 50 379 -1152
2021-10-21 08:41:32 GMT 54.986343 -3.576292 24,950 52 379 -896
2021-10-21 08:41:30 GMT 54.984375 -3.580654 24,975 53 379 -704
2021-10-21 08:41:28 GMT 54.982590 -3.584774 25,000 54 380 -384
2021-10-21 08:41:26 GMT 54.980568 -3.589949 25,000 56 379 -192
2021-10-21 08:41:25 GMT 54.979588 -3.592529 25,000 58 380 -64
2021-10-21 08:41:23 GMT 54.977783 -3.597538 25,000 60 381 -64
2021-10-21 08:41:20 GMT 54.974854 -3.606585 25,000 62 381 -64
2021-10-21 08:41:19 GMT 54.974094 -3.609175 25,000 64 380 -64
2021-10-21 08:41:17 GMT 54.972885 -3.613452 25,000 65 380 -64
2021-10-21 08:41:16 GMT 54.972095 -3.616333 25,000 66 380 -64
2021-10-21 08:41:15 GMT 54.971283 -3.619510 25,000 67 380 0
2021-10-21 08:41:13 GMT 54.970230 -3.623907 25,000 67 380 0
2021-10-21 08:41:12 GMT 54.968464 -3.631897 25,000 70 380 0
2021-10-21 08:41:10 GMT 54.967857 -3.634727 25,000 71 380 0
2021-10-21 08:41:08 GMT 54.966835 -3.640220 25,000 72 380 64
2021-10-21 08:41:07 GMT 54.965576 -3.647627 25,000 76 381 64
2021-10-21 08:41:05 GMT 54.965576 -3.647627 25,000 76 381 64
2021-10-21 08:41:04 GMT 54.965111 -3.650873 25,000 78 382 0
2021-10-21 08:41:02 GMT 54.964554 -3.655368 25,000 79 383 0
2021-10-21 08:41:01 GMT 54.964226 -3.658364 25,000 81 383 0
2021-10-21 08:40:59 GMT 54.963669 -3.664440 25,000 83 384 0
2021-10-21 08:40:58 GMT 54.963455 -3.667333 25,000 84 384 0
2021-10-21 08:40:57 GMT 54.963295 -3.669933 25,000 86 384 0
2021-10-21 08:40:56 GMT 54.963135 -3.673150 25,000 87 385 64
2021-10-21 08:40:55 GMT 54.962952 -3.677512 25,000 88 386 64
2021-10-21 08:40:53 GMT 54.962875 -3.683499 25,000 90 387 64
2021-10-21 08:40:52 GMT 54.962906 -3.685186 25,000 92 387 64
2021-10-21 08:40:50 GMT 54.963158 -3.694403 25,000 96 388 64
2021-10-21 08:40:48 GMT 54.963436 -3.699313 25,000 96 388 64
2021-10-21 08:40:47 GMT 54.963715 -3.702725 25,000 97 388 0
2021-10-21 08:40:45 GMT 54.964325 -3.709097 25,000 101 390 0
2021-10-21 08:40:44 GMT 54.964691 -3.712297 25,000 104 391 0
2021-10-21 08:40:42 GMT 54.965626 -3.718955 25,000 105 391 -64
2021-10-21 08:40:40 GMT 54.966431 -3.723638 25,000 108 392 -64
2021-10-21 08:40:38 GMT 54.967300 -3.728277 25,000 109 391 -64
2021-10-21 08:40:37 GMT 54.968582 -3.734301 25,000 112 392 -64
2021-10-21 08:40:35 GMT 54.969254 -3.737099 25,025 113 392 -64
2021-10-21 08:40:34 GMT 54.970047 -3.740262 25,025 114 392 -64
2021-10-21 08:40:33 GMT 54.971302 -3.744840 25,025 116 392 -64
2021-10-21 08:40:32 GMT 54.972187 -3.747919 25,025 118 392 -64
2021-10-21 08:40:30 GMT 54.973206 -3.751104 25,025 119 392 -128
2021-10-21 08:40:29 GMT 54.974514 -3.755077 25,025 121 393 -128
2021-10-21 08:40:28 GMT 54.978008 -3.764232 25,025 126 392 -64
2021-10-21 08:40:26 GMT 54.978008 -3.764232 25,050 126 392 -64
2021-10-21 08:40:24 GMT 54.980026 -3.768876 25,050 128 391 -64
2021-10-21 08:40:21 GMT 54.983643 -3.776308 25,050 132 390 0
2021-10-21 08:40:20 GMT 54.984879 -3.778651 25,050 133 390 64
2021-10-21 08:40:19 GMT 54.985977 -3.780670 25,050 135 390 64
2021-10-21 08:40:17 GMT 54.988541 -3.785032 25,050 138 389 192
2021-10-21 08:40:16 GMT 54.989830 -3.787037 25,025 138 389 256
2021-10-21 08:40:15 GMT 54.991322 -3.789284 25,025 140 389 256
2021-10-21 08:40:14 GMT 54.994125 -3.793353 25,025 142 388 256
2021-10-21 08:40:12 GMT 54.995510 -3.795194 25,025 143 387 128
2021-10-21 08:40:11 GMT 54.997009 -3.797150 25,000 144 388 64
2021-10-21 08:40:10 GMT 54.999985 -3.800623 25,000 146 389 64
2021-10-21 08:40:07 GMT 55.002121 -3.803184 25,000 147 390 64
2021-10-21 08:40:06 GMT 55.003738 -3.804905 25,000 147 390 64
2021-10-21 08:40:05 GMT 55.006077 -3.807512 25,000 147 391 64
2021-10-21 08:40:04 GMT 55.007473 -3.809010 24,975 147 391 64
2021-10-21 08:40:03 GMT 55.009010 -3.810758 25,000 147 392 64
2021-10-21 08:40:01 GMT 55.011978 -3.814033 24,975 147 394 64
2021-10-21 08:39:58 GMT 55.017296 -3.819830 24,975 147 395 64
2021-10-21 08:39:57 GMT 55.018890 -3.821627 24,975 147 398 0
2021-10-21 08:39:55 GMT 55.021301 -3.824324 24,975 147 398 0
2021-10-21 08:39:53 GMT 55.024475 -3.827766 24,975 147 399 -64
2021-10-21 08:39:52 GMT 55.026142 -3.829568 24,975 147 402 -64
2021-10-21 08:39:50 GMT 55.029263 -3.833063 24,975 147 402 -64
2021-10-21 08:39:48 GMT 55.034042 -3.838348 25,000 147 403 -64
2021-10-21 08:39:46 GMT 55.035461 -3.839883 25,000 147 403 0
2021-10-21 08:39:44 GMT 55.038757 -3.843518 25,000 147 405 -64
2021-10-21 08:39:42 GMT 55.041828 -3.846879 25,000 147 405 -64
2021-10-21 08:39:40 GMT 55.045135 -3.850542 25,000 147 405 -64
2021-10-21 08:39:38 GMT 55.048370 -3.854182 25,000 147 406 -64
2021-10-21 08:39:37 GMT 55.050072 -3.856035 25,000 147 407 -64
2021-10-21 08:39:36 GMT 55.051575 -3.857655 25,000 147 407 -64
2021-10-21 08:39:35 GMT 55.053047 -3.859281 25,000 147 408 -64
2021-10-21 08:39:34 GMT 55.054596 -3.860967 25,000 147 408 0
2021-10-21 08:39:33 GMT 55.057518 -3.864274 25,000 147 409 0
2021-10-21 08:39:31 GMT 55.059036 -3.865895 25,000 147 409 64
2021-10-21 08:39:30 GMT 55.060776 -3.867834 25,000 147 409 64
2021-10-21 08:39:29 GMT 55.062561 -3.869773 25,000 147 410 64
2021-10-21 08:39:27 GMT 55.065849 -3.873430 25,000 147 411 128
2021-10-21 08:39:26 GMT 55.067432 -3.875178 25,000 147 411 128
2021-10-21 08:39:25 GMT 55.068878 -3.876759 25,000 147 412 192
2021-10-21 08:39:24 GMT 55.072273 -3.880504 24,975 147 413 256
2021-10-21 08:39:22 GMT 55.073719 -3.882086 24,975 147 413 256
2021-10-21 08:39:21 GMT 55.075485 -3.884000 24,975 147 415 320
2021-10-21 08:39:18 GMT 55.080597 -3.889645 24,950 147 417 448
2021-10-21 08:39:17 GMT 55.082329 -3.891574 24,950 147 417 448
2021-10-21 08:39:15 GMT 55.084751 -3.894237 24,925 147 419 576
2021-10-21 08:39:14 GMT 55.086891 -3.896568 24,900 147 421 640
2021-10-21 08:39:13 GMT 55.088608 -3.898450 24,900 147 421 640
2021-10-21 08:39:11 GMT 55.091766 -3.901924 24,875 147 423 768
2021-10-21 08:39:09 GMT 55.095245 -3.905720 24,825 147 426 896
2021-10-21 08:39:08 GMT 55.096992 -3.907720 24,825 147 426 960
2021-10-21 08:39:07 GMT 55.100487 -3.911549 24,775 147 429 1088
2021-10-21 08:39:05 GMT 55.101425 -3.912587 24,775 147 430 1216
2021-10-21 08:39:03 GMT 55.105453 -3.917030 24,725 147 431 1344
2021-10-21 08:39:01 GMT 55.108475 -3.920342 24,700 147 433 1408
2021-10-21 08:39:00 GMT 55.110352 -3.922442 24,675 147 434 1600
2021-10-21 08:38:59 GMT 55.111938 -3.924200 24,650 147 434 1664
2021-10-21 08:38:58 GMT 55.113476 -3.925864 24,625 147 434 1792
2021-10-21 08:38:57 GMT 55.115337 -3.927945 24,600 147 434 1920
2021-10-21 08:38:56 GMT 55.118958 -3.931975 24,525 147 433 2112
2021-10-21 08:38:54 GMT 55.120598 -3.933771 24,475 147 433 2176
2021-10-21 08:38:53 GMT 55.122272 -3.935602 24,450 147 433 2240
2021-10-21 08:38:52 GMT 55.126972 -3.940846 24,325 147 433 2432
2021-10-21 08:38:50 GMT 55.126972 -3.940846 24,325 147 433 2432
2021-10-21 08:38:48 GMT 55.130184 -3.944425 24,275 147 433 2496
2021-10-21 08:38:47 GMT 55.131908 -3.946256 24,225 147 433 2496
2021-10-21 08:38:46 GMT 55.133469 -3.948050 24,125 147 433 2560
2021-10-21 08:38:45 GMT 55.135162 -3.949908 24,125 147 433 2560
2021-10-21 08:38:44 GMT 55.136936 -3.951915 24,075 147 433 2624
2021-10-21 08:38:42 GMT 55.140244 -3.955563 24,050 147 433 2624
2021-10-21 08:38:41 GMT 55.142010 -3.957492 23,950 147 433 2688
2021-10-21 08:38:40 GMT 55.143768 -3.959521 23,900 147 433 2688
2021-10-21 08:38:39 GMT 55.145645 -3.961541 23,850 147 433 2688
2021-10-21 08:38:37 GMT 55.149086 -3.965399 23,800 147 433 2688
2021-10-21 08:38:36 GMT 55.150864 -3.967357 23,725 147 433 2688
2021-10-21 08:38:35 GMT 55.152672 -3.969310 23,675 147 433 2624
2021-10-21 08:38:34 GMT 55.153648 -3.970476 23,575 147 433 2496
2021-10-21 08:38:32 GMT 55.159096 -3.976468 23,525 147 434 2304
2021-10-21 08:38:30 GMT 55.160706 -3.978263 23,450 147 434 2240
2021-10-21 08:38:28 GMT 55.164047 -3.982059 23,400 147 434 2112
2021-10-21 08:38:27 GMT 55.167706 -3.986123 23,325 147 434 1984
2021-10-21 08:38:25 GMT 55.169495 -3.988037 23,300 147 433 1920
2021-10-21 08:38:24 GMT 55.171326 -3.990137 23,275 147 433 1856
2021-10-21 08:38:22 GMT 55.174026 -3.993126 23,200 147 433 1792
2021-10-21 08:38:21 GMT 55.175720 -3.995065 23,200 147 433 1600
2021-10-21 08:38:20 GMT 55.177414 -3.996923 23,150 147 431 1536
2021-10-21 08:38:19 GMT 55.180573 -4.000478 23,125 147 431 1472
2021-10-21 08:38:16 GMT 55.184048 -4.004267 23,050 147 430 1536
2021-10-21 08:38:15 GMT 55.186295 -4.006778 23,025 147 429 1600
2021-10-21 08:38:13 GMT 55.188950 -4.009767 23,000 147 429 1664
2021-10-21 08:38:12 GMT 55.190781 -4.011868 22,975 147 428 1856
2021-10-21 08:38:11 GMT 55.193031 -4.014338 22,925 147 428 1984
2021-10-21 08:38:10 GMT 55.194057 -4.015503 22,875 147 427 2048
2021-10-21 08:38:09 GMT 55.196384 -4.018083 22,825 147 427 2112
2021-10-21 08:38:08 GMT 55.199799 -4.021885 22,825 147 427 2304
2021-10-21 08:38:06 GMT 55.201363 -4.023659 22,750 147 427 2432
2021-10-21 08:38:05 GMT 55.202343 -4.024741 22,725 147 426 2496
2021-10-21 08:38:04 GMT 55.204018 -4.026656 22,675 147 426 2560
2021-10-21 08:38:02 GMT 55.207397 -4.030448 22,575 147 426 2688
2021-10-21 08:37:59 GMT 55.213028 -4.036749 22,350 147 427 3136
2021-10-21 08:37:56 GMT 55.217285 -4.041471 22,250 147 430 3328
2021-10-21 08:37:54 GMT 55.221176 -4.045796 22,150 147 428 3392
2021-10-21 08:37:51 GMT 55.225433 -4.050543 21,900 147 429 3520
2021-10-21 08:37:48 GMT 55.230457 -4.056202 21,800 147 431 3264
2021-10-21 08:37:46 GMT 55.233902 -4.060014 21,700 147 431 3264
2021-10-21 08:37:44 GMT 55.237244 -4.063730 21,575 147 432 3072
2021-10-21 08:37:42 GMT 55.240887 -4.067771 21,525 147 433 2944
2021-10-21 08:37:39 GMT 55.245987 -4.073504 21,375 147 433 2752
2021-10-21 08:37:36 GMT 55.255096 -4.083683 21,175 147 433 2624
2021-10-21 08:37:34 GMT 55.255096 -4.083683 21,125 147 433 2560
2021-10-21 08:37:32 GMT 55.257877 -4.086831 21,075 147 433 2496
2021-10-21 08:37:29 GMT 55.262955 -4.092490 20,925 147 433 2432
2021-10-21 08:37:27 GMT 55.265469 -4.095320 20,750 147 432 2496
2021-10-21 08:37:24 GMT 55.271759 -4.102343 20,725 147 432 2688
2021-10-21 08:37:22 GMT 55.279572 -4.111134 20,625 147 432 2880
2021-10-21 08:37:19 GMT 55.279572 -4.111134 20,500 147 432 3200
2021-10-21 08:37:17 GMT 55.282925 -4.114879 20,125 147 432 3392
2021-10-21 08:37:14 GMT 55.288742 -4.121327 20,175 147 432 3520
2021-10-21 08:37:11 GMT 55.292450 -4.125528 19,850 147 434 3840
2021-10-21 08:37:08 GMT 55.297668 -4.131344 19,800 147 434 3840
2021-10-21 08:37:05 GMT 55.302383 -4.136676 19,475 147 435 3776
2021-10-21 08:37:03 GMT 55.305874 -4.140597 19,475 147 437 3648
2021-10-21 08:37:00 GMT 55.311768 -4.147177 19,325 147 438 3264
2021-10-21 08:36:58 GMT 55.314720 -4.150502 19,250 147 438 3264
2021-10-21 08:36:56 GMT 55.318909 -4.155255 19,100 147 439 3008
2021-10-21 08:36:53 GMT 55.322845 -4.159618 19,000 147 439 2624
2021-10-21 08:36:51 GMT 55.332230 -4.170200 18,900 147 439 2624
2021-10-21 08:36:48 GMT 55.332230 -4.170200 18,825 147 439 2432
2021-10-21 08:36:45 GMT 55.337437 -4.176053 18,625 147 438 2048
2021-10-21 08:36:42 GMT 55.343170 -4.182479 18,525 147 437 2048
2021-10-21 08:36:39 GMT 55.348068 -4.187972 18,450 147 435 2112
2021-10-21 08:36:37 GMT 55.350517 -4.190785 18,300 147 434 2112
2021-10-21 08:36:33 GMT 55.356430 -4.197443 18,175 147 433 2112
2021-10-21 08:36:31 GMT 55.360931 -4.202432 18,175 147 433 2112
2021-10-21 08:36:28 GMT 55.365280 -4.207441 18,075 147 432 2112
2021-10-21 08:36:26 GMT 55.369812 -4.212530 17,975 147 431 2112
2021-10-21 08:36:23 GMT 55.378510 -4.222304 17,850 147 429 2240
2021-10-21 08:36:21 GMT 55.378510 -4.222304 17,800 147 429 2304
2021-10-21 08:36:18 GMT 55.382778 -4.227073 17,675 147 427 2432
2021-10-21 08:36:15 GMT 55.386337 -4.231110 17,625 147 427 2496
2021-10-21 08:36:13 GMT 55.391579 -4.236977 17,475 147 427 2752
2021-10-21 08:36:11 GMT 55.393906 -4.239641 17,375 147 426 2880
2021-10-21 08:36:08 GMT 55.398048 -4.244302 17,300 147 426 3008
2021-10-21 08:36:06 GMT 55.401306 -4.247912 17,225 147 426 3072
2021-10-21 08:36:03 GMT 55.407257 -4.254698 16,775 147 426 2624
2021-10-21 08:36:00 GMT 55.412991 -4.261114 16,775 147 426 2624
2021-10-21 08:35:56 GMT 55.420441 -4.269603 16,625 147 426 2368
2021-10-21 08:35:53 GMT 55.423092 -4.272516 16,575 147 425 2176
2021-10-21 08:35:51 GMT 55.428726 -4.278925 16,475 147 424 1856
2021-10-21 08:35:48 GMT 55.431332 -4.281921 16,375 147 423 1728
2021-10-21 08:35:46 GMT 55.435287 -4.286333 16,300 147 421 1472
2021-10-21 08:35:43 GMT 55.440037 -4.291742 16,275 147 416 1280
2021-10-21 08:35:41 GMT 55.444088 -4.296341 16,200 147 416 1280
2021-10-21 08:35:38 GMT 55.448322 -4.301147 16,175 147 415 1344
2021-10-21 08:35:36 GMT 55.451614 -4.304893 16,075 147 412 1728
2021-10-21 08:35:33 GMT 55.456516 -4.310417 16,050 147 412 1728
2021-10-21 08:35:31 GMT 55.458565 -4.312820 16,000 147 410 1856
2021-10-21 08:35:28 GMT 55.464478 -4.319515 15,800 147 408 2304
2021-10-21 08:35:25 GMT 55.469227 -4.324923 15,775 147 408 2496
2021-10-21 08:35:23 GMT 55.472530 -4.328613 15,675 147 406 2560
2021-10-21 08:35:21 GMT 55.475784 -4.332275 15,550 147 405 2880
2021-10-21 08:35:18 GMT 55.479652 -4.336681 15,425 147 405 3072
2021-10-21 08:35:16 GMT 55.483425 -4.340973 15,250 147 405 3072
2021-10-21 08:35:13 GMT 55.488918 -4.347239 15,200 147 405 3072
2021-10-21 08:35:10 GMT 55.493015 -4.351873 15,000 147 405 2752
2021-10-21 08:35:07 GMT 55.496887 -4.356246 14,550 147 404 2688
2021-10-21 08:35:05 GMT 55.501602 -4.361572 14,800 147 404 2560
2021-10-21 08:35:03 GMT 55.504189 -4.364576 14,750 147 403 2560
2021-10-21 08:35:01 GMT 55.508236 -4.369211 14,575 147 402 2624
2021-10-21 08:34:58 GMT 55.511356 -4.372730 14,525 147 401 2624
2021-10-21 08:34:55 GMT 55.517349 -4.379550 14,375 147 400 2560
2021-10-21 08:34:52 GMT 55.521240 -4.384044 14,225 146 398 2432
2021-10-21 08:34:49 GMT 55.526962 -4.390536 14,100 146 398 2432
2021-10-21 08:34:46 GMT 55.529892 -4.393949 13,850 147 395 2624
2021-10-21 08:34:43 GMT 55.535110 -4.399858 13,900 147 395 2624
2021-10-21 08:34:41 GMT 55.537331 -4.402428 13,825 146 394 2624
2021-10-21 08:34:38 GMT 55.542114 -4.407931 13,675 147 393 2752
2021-10-21 08:34:36 GMT 55.546642 -4.413071 13,500 146 392 2752
2021-10-21 08:34:33 GMT 55.550171 -4.417170 13,450 147 391 2688
2021-10-21 08:34:31 GMT 55.554508 -4.422169 13,325 147 389 2624
2021-10-21 08:34:28 GMT 55.557533 -4.425602 13,225 147 389 2624
2021-10-21 08:34:26 GMT 55.560562 -4.429035 13,150 147 389 2624
2021-10-21 08:34:23 GMT 55.565216 -4.434357 13,000 147 387 2560
2021-10-21 08:34:20 GMT 55.569874 -4.439678 12,875 147 386 2432
2021-10-21 08:34:17 GMT 55.574707 -4.445218 12,750 147 384 2304
2021-10-21 08:34:15 GMT 55.577042 -4.447832 12,625 147 382 2240
2021-10-21 08:34:12 GMT 55.580906 -4.452295 12,600 147 382 2240
2021-10-21 08:34:09 GMT 55.587021 -4.459284 12,400 147 376 2816
2021-10-21 08:34:06 GMT 55.591053 -4.463882 12,275 147 377 2752
2021-10-21 08:34:03 GMT 55.597523 -4.471178 12,200 147 376 2816
2021-10-21 08:34:01 GMT 55.597523 -4.471178 11,000 148 349 1280
2021-10-21 08:33:58 GMT 55.602448 -4.476762 11,875 147 374 2816
2021-10-21 08:33:55 GMT 55.607021 -4.481907 11,675 147 373 2624
2021-10-21 08:33:52 GMT 55.612061 -4.487499 11,650 147 372 2496
2021-10-21 08:33:49 GMT 55.615631 -4.491520 11,475 147 369 2240
2021-10-21 08:33:46 GMT 55.620209 -4.496571 11,325 147 368 2112
2021-10-21 08:33:43 GMT 55.623779 -4.500566 11,300 147 367 1984
2021-10-21 08:33:41 GMT 55.626617 -4.503708 11,225 148 365 1728
2021-10-21 08:33:38 GMT 55.631599 -4.509201 10,800 148 314 2368
2021-10-21 08:33:35 GMT 55.635044 -4.512978 11,100 148 361 1344
2021-10-21 08:33:33 GMT 55.637787 -4.515963 11,050 148 357 1216
2021-10-21 08:33:31 GMT 55.641376 -4.519844 11,000 148 354 1216
2021-10-21 08:33:27 GMT 55.647125 -4.526117 10,925 148 349 1280
2021-10-21 08:33:23 GMT 55.652298 -4.531694 10,825 148 341 1344
2021-10-21 08:33:20 GMT 55.656647 -4.536355 10,775 148 339 1408
2021-10-21 08:33:16 GMT 55.661453 -4.541515 10,650 148 332 1408
2021-10-21 08:33:13 GMT 55.664703 -4.545094 10,625 148 328 1408
2021-10-21 08:33:11 GMT 55.668144 -4.548855 10,575 148 327 1472
2021-10-21 08:33:08 GMT 55.672379 -4.553404 10,475 148 321 1664
2021-10-21 08:33:05 GMT 55.675369 -4.556663 10,425 148 318 1856
2021-10-21 08:33:02 GMT 55.679317 -4.560957 10,325 148 314 2368
2021-10-21 08:32:58 GMT 55.684433 -4.566484 10,100 148 310 2880
2021-10-21 08:32:55 GMT 55.688095 -4.570562 10,000 148 309 3008
2021-10-21 08:32:53 GMT 55.689930 -4.572630 9,900 147 308 3136
2021-10-21 08:32:51 GMT 55.693096 -4.576063 9,800 147 307 3328
2021-10-21 08:32:48 GMT 55.699951 -4.583879 9,575 147 307 3584
2021-10-21 08:32:45 GMT 55.699951 -4.583879 9,450 146 307 3776
2021-10-21 08:32:43 GMT 55.702332 -4.586626 9,200 146 308 3840
2021-10-21 08:32:40 GMT 55.705536 -4.590371 9,050 146 308 3712
2021-10-21 08:32:37 GMT 55.709530 -4.595032 8,900 146 308 3648
2021-10-21 08:32:34 GMT 55.712975 -4.599152 8,700 147 308 3520
2021-10-21 08:32:31 GMT 55.718002 -4.604816 8,500 148 307 3520
2021-10-21 08:32:28 GMT 55.720329 -4.607220 8,300 152 307 3712
2021-10-21 08:32:25 GMT 55.724030 -4.610679 8,200 154 307 3840
2021-10-21 08:32:22 GMT 55.726959 -4.613176 8,050 156 307 3840
2021-10-21 08:32:19 GMT 55.732224 -4.616921 7,725 162 306 3264
2021-10-21 08:32:16 GMT 55.736996 -4.619665 7,625 166 303 3072
2021-10-21 08:32:13 GMT 55.739880 -4.620781 7,475 170 302 2816
2021-10-21 08:32:10 GMT 55.744164 -4.621897 7,325 179 297 2368
2021-10-21 08:32:06 GMT 55.749435 -4.622331 7,175 186 290 2048
2021-10-21 08:32:03 GMT 55.752914 -4.621983 7,125 190 286 1920
2021-10-21 08:32:00 GMT 55.757664 -4.620781 6,325 198 277 1984
2021-10-21 08:31:57 GMT 55.762924 -4.618292 6,875 198 277 2048
2021-10-21 08:31:53 GMT 55.766418 -4.616006 6,750 205 269 2368
2021-10-21 08:31:50 GMT 55.769623 -4.613176 6,600 212 262 2816
2021-10-21 08:31:46 GMT 55.774284 -4.608078 6,375 218 257 3200
2021-10-21 08:31:43 GMT 55.776169 -4.605519 6,275 222 254 3712
2021-10-21 08:31:41 GMT 55.778824 -4.601524 6,100 223 254 3840
2021-10-21 08:31:38 GMT 55.781067 -4.597778 5,900 224 253 3520
2021-10-21 08:31:35 GMT 55.783173 -4.594283 5,775 224 253 3456
2021-10-21 08:31:32 GMT 55.785782 -4.589882 5,575 224 251 3072
2021-10-21 08:31:29 GMT 55.789505 -4.583702 5,450 224 249 2944
2021-10-21 08:31:25 GMT 55.791508 -4.580355 5,325 224 248 2944
2021-10-21 08:31:22 GMT 55.794067 -4.576139 5,175 224 246 2880
2021-10-21 08:31:18 GMT 55.797466 -4.570398 4,875 223 240 3136
2021-10-21 08:31:15 GMT 55.799789 -4.566567 4,850 223 239 3264
2021-10-21 08:31:12 GMT 55.802307 -4.562406 4,650 223 237 3520
2021-10-21 08:31:08 GMT 55.805603 -4.556996 4,400 224 237 3776
2021-10-21 08:31:05 GMT 55.807617 -4.553667 3,950 224 236 3776
2021-10-21 08:31:02 GMT 55.810455 -4.548839 4,025 224 235 3776
2021-10-21 08:30:59 GMT 55.812408 -4.545593 3,550 225 232 3392
2021-10-21 08:30:55 GMT 55.815491 -4.540350 3,450 225 234 3392
2021-10-21 08:30:52 GMT 55.817856 -4.536324 3,450 225 232 3328
2021-10-21 08:30:50 GMT 55.820229 -4.532204 3,300 225 230 3264
2021-10-21 08:30:46 GMT 55.822510 -4.528170 3,075 226 228 3200
2021-10-21 08:30:43 GMT 55.825607 -4.522622 2,850 226 226 3008
2021-10-21 08:30:39 GMT 55.827988 -4.518211 2,750 227 224 2688
2021-10-21 08:30:36 GMT 55.830826 -4.512967 2,575 227 219 2112
2021-10-21 08:30:32 GMT 55.832611 -4.509555 2,425 228 215 1728
2021-10-21 08:30:28 GMT 55.835861 -4.503229 2,375 229 201 768
2021-10-21 08:30:22 GMT 55.839317 -4.496241 2,300 229 194 832
2021-10-21 08:30:19 GMT 55.841084 -4.492636 2,250 229 188 1408
2021-10-21 08:30:15 GMT 55.843552 -4.487743 2,150 229 182 1600
2021-10-21 08:30:12 GMT 55.844833 -4.485085 2,050 230 180 1600
2021-10-21 08:30:09 GMT 55.846809 -4.480963 1,975 230 175 1600
2021-10-21 08:30:05 GMT 55.848907 -4.476679 1,875 230 170 1600
2021-10-21 08:30:02 GMT 55.850235 -4.473932 1,800 229 165 1664
2021-10-21 08:29:57 GMT 55.852631 -4.469032 1,675 229 159 1856
2021-10-21 08:29:54 GMT 55.854080 -4.466109 1,575 229 157 1856
2021-10-21 08:29:51 GMT 55.855637 -4.463113 1,475 228 154 1728
2021-10-21 08:29:47 GMT 55.857880 -4.458868 1,300 227 149 3008
2021-10-21 08:29:42 GMT 55.859940 -4.454956 1,025 226 150 3008
2021-10-21 08:29:38 GMT 55.861801 -4.451780 875 226 152 3008
2021-10-21 08:29:34 GMT 55.863876 -4.447965 650 225 153 3200
2021-10-21 08:29:28 GMT 55.866806 -4.442805 350 226 159 2688
2021-10-21 08:29:09 GMT 55.875732 -4.426159 200 227 32
2021-10-21 08:28:55 GMT 55.878731 -4.420561 0 227 32
2021-10-21 08:28:44 GMT 55.879143 -4.419851 0 225 0
2021-10-21 08:28:34 GMT 55.879143 -4.419854 0 225 0
2021-10-21 08:27:57 GMT 55.879143 -4.419851 0 225 0
2021-10-21 08:27:47 GMT 55.879189 -4.419765 0 227 7
2021-10-21 08:27:36 GMT 55.879269 -4.419143 0 315 10
2021-10-21 08:27:31 GMT 55.879086 -4.418834 0 326 12
2021-10-21 08:27:27 GMT 55.878902 -4.418605 0 340 12
2021-10-21 08:27:17 GMT 55.878513 -4.418439 0 2 6
2021-10-21 08:27:07 GMT 55.878384 -4.418457 0 5 0
2021-10-21 08:26:57 GMT 55.878376 -4.418460 0 5 0
2021-10-21 08:26:46 GMT 55.878262 -4.418460 0 11 8
2021-10-21 08:26:36 GMT 55.877747 -4.418751 0 36 18
2021-10-21 08:26:15 GMT 55.876499 -4.420978 0 45 21
2021-10-21 08:26:00 GMT 55.875546 -4.422748 0 45 19
2021-10-21 08:25:56 GMT 55.875324 -4.423177 0 45 19
2021-10-21 08:23:31 GMT 55.866554 -4.429196 0 343 0
2021-10-21 08:23:28 GMT 55.866550 -4.429207 0 343 0
2021-10-21 08:23:17 GMT 55.866528 -4.429207 0 343 0
2021-10-21 08:22:32 GMT 55.866520 -4.429259 0 343 0
2021-10-21 08:22:27 GMT 55.866512 -4.429271 0 343 0
2021-10-21 08:22:11 GMT 55.866528 -4.429271 0 343 0
2021-10-21 08:22:01 GMT 55.866531 -4.429259 0 343 0
2021-10-21 08:21:56 GMT 55.866520 -4.429259 0 343 0
2021-10-21 08:21:46 GMT 55.866512 -4.429293 0 343 0
2021-10-21 08:21:36 GMT 55.866512 -4.429314 0 343 0
2021-10-21 08:21:26 GMT 55.866520 -4.429280 0 343 0
2021-10-21 08:21:17 GMT 55.866528 -4.429250 0 343 0

Making use of Plane Finder data

You are free to use the raw flight data, aircraft information and images provided in this report for your own purposes provided the data is correctly attributed to Plane Finder. We ask that you please credit Plane Finder and link to planefinder.net in close proximity to the content.

Optionally one of the following logos (no smaller then 150x24px) can be used and must link to planefinder.net

Embedding the Plane Finder map

You are welcome to embed the Plane Finder playback map on your website to offer visitors a more interactive experience. We suggest using the following HTML code:

<iframe src="//planefinder.net/data/report/U2511-G-EZTK-7700-squawk-2021-10-21/map" width="800" height="600" seamless="seamless"></iframe>

Where our data comes from

Plane Finder has a global network of data feeds and antenna radars that receive data broadcast directly from aircraft. The primary technologies used are ADS-B and MLAT. We also show feeds from the FAA and a FLARM glider feed.

Click here to find out more about the Plane Finder network.

How we collect our data